| time (UTC) | temp C | wind direction | speed KPH | gust KPH | rain 1hr cm | rain 24hr cm | rain mn cm | humidity % | barometer mb |
| 20260507151425 | 7 | 199 | 6.4 | 11.3 | 0.00 | 0.00 | 0.00 | 85 | 853.2 |
| 20260507151227 | 7 | 197 | 6.4 | 11.3 | 0.00 | 0.00 | 0.00 | 85 | 853.2 |
| 20260507151026 | 7 | 197 | 6.4 | 9.7 | 0.00 | 0.00 | 0.00 | 85 | 853.2 |
| 20260507150925 | 7 | 195 | 6.4 | 9.7 | 0.00 | 0.00 | 0.00 | 85 | 853.2 |
| 20260507150828 | 7 | 191 | 8.0 | 11.3 | 0.00 | 0.00 | 0.00 | 85 | 853.2 |
| 20260507150627 | 7 | 196 | 9.7 | 11.3 | 0.00 | 0.00 | 0.00 | 85 | 853.1 |
| 20260507150423 | 7 | 200 | 6.4 | 9.7 | 0.00 | 0.00 | 0.00 | 85 | 853.1 |
| 20260507150224 | 8 | 204 | 6.4 | 9.7 | 0.00 | 0.00 | 0.00 | 85 | 853.1 |
| 20260507145923 | 8 | 201 | 4.8 | 9.7 | 0.00 | 0.00 | 0.00 | 85 | 853.1 |
| 20260507145824 | 8 | 199 | 4.8 | 9.7 | 0.00 | 0.00 | 0.00 | 85 | 853.2 |
| 20260507145624 | 8 | 194 | 6.4 | 11.3 | 0.00 | 0.00 | 0.00 | 84 | 853.2 |
| 20260507145420 | 8 | 197 | 8.0 | 11.3 | 0.00 | 0.00 | 0.00 | 84 | 853.1 |
| 20260507145221 | 8 | 207 | 6.4 | 8.0 | 0.00 | 0.00 | 0.00 | 84 | 853.1 |
| 20260507144920 | 8 | 208 | 8.0 | 11.3 | 0.00 | 0.00 | 0.00 | 84 | 853.1 |
| 20260507144820 | 8 | 207 | 8.0 | 11.3 | 0.00 | 0.00 | 0.00 | 84 | 853.1 |
| 20260507144621 | 8 | 204 | 6.4 | 9.7 | 0.00 | 0.00 | 0.00 | 84 | 853.1 |
| 20260507144417 | 8 | 208 | 6.4 | 9.7 | 0.00 | 0.00 | 0.00 | 84 | 853.0 |
| 20260507144218 | 8 | 208 | 6.4 | 9.7 | 0.00 | 0.00 | 0.00 | 84 | 852.9 |
| 20260507144018 | 8 | 205 | 6.4 | 9.7 | 0.00 | 0.00 | 0.00 | 84 | 852.9 |
| 20260507143917 | 8 | 211 | 4.8 | 8.0 | 0.00 | 0.00 | 0.00 | 84 | 852.9 |
| 20260507143414 | 8 | 216 | 8.0 | 11.3 | 0.00 | 0.00 | 0.00 | 84 | 852.9 |
| 20260507143014 | 8 | 208 | 9.7 | 12.9 | 0.00 | 0.00 | 0.00 | 85 | 852.9 |
| 20260507142914 | 8 | 208 | 8.0 | 12.9 | 0.00 | 0.00 | 0.00 | 85 | 852.9 |
| 20260507142814 | 8 | 213 | 6.4 | 12.9 | 0.00 | 0.00 | 0.00 | 85 | 852.9 |
| 20260507142614 | 8 | 208 | 6.4 | 11.3 | 0.00 | 0.00 | 0.00 | 85 | 852.9 |
| 20260507142411 | 8 | 212 | 9.7 | 16.1 | 0.00 | 0.00 | 0.00 | 85 | 852.9 |
| 20260507142212 | 8 | 216 | 8.0 | 12.9 | 0.00 | 0.00 | 0.00 | 85 | 852.9 |
| 20260507141911 | 8 | 206 | 11.3 | 16.1 | 0.00 | 0.00 | 0.00 | 85 | 852.9 |
| 20260507141812 | 8 | 205 | 11.3 | 16.1 | 0.00 | 0.00 | 0.00 | 85 | 852.9 |
| 20260507141612 | 8 | 205 | 8.0 | 12.9 | 0.00 | 0.00 | 0.00 | 85 | 852.9 |
| 20260507141408 | 8 | 216 | 8.0 | 12.9 | 0.00 | 0.00 | 0.00 | 85 | 852.9 |
| 20260507141209 | 8 | 209 | 8.0 | 12.9 | 0.00 | 0.00 | 0.00 | 85 | 852.9 |
| 20260507141008 | 8 | 197 | 8.0 | 12.9 | 0.00 | 0.00 | 0.00 | 85 | 852.9 |
| 20260507140908 | 8 | 194 | 9.7 | 14.5 | 0.00 | 0.00 | 0.00 | 85 | 853.0 |
| 20260507140809 | 7 | 196 | 9.7 | 14.5 | 0.00 | 0.00 | 0.00 | 85 | 853.0 |
| 20260507140609 | 7 | 197 | 9.7 | 14.5 | 0.00 | 0.00 | 0.00 | 85 | 853.0 |
| 20260507140406 | 7 | 190 | 9.7 | 12.9 | 0.00 | 0.00 | 0.00 | 85 | 853.0 |
| 20260507140206 | 7 | 193 | 9.7 | 12.9 | 0.00 | 0.00 | 0.00 | 85 | 853.1 |
| 20260507140007 | 7 | 194 | 9.7 | 12.9 | 0.00 | 0.00 | 0.00 | 85 | 853.1 |
| 20260507135852 | 7 | 192 | 9.7 | 12.9 | 0.00 | 0.00 | 0.00 | 85 | 853.2 |
| 20260507135753 | 7 | 193 | 9.7 | 12.9 | 0.00 | 0.00 | 0.00 | 85 | 853.2 |
| 20260507135349 | 7 | 192 | 9.7 | 14.5 | 0.00 | 0.00 | 0.00 | 85 | 853.2 |
| 20260507135150 | 7 | 193 | 9.7 | 16.1 | 0.00 | 0.00 | 0.00 | 85 | 853.2 |
| 20260507134951 | 7 | 193 | 9.7 | 14.5 | 0.00 | 0.00 | 0.00 | 85 | 853.2 |
| 20260507134849 | 7 | 192 | 9.7 | 14.5 | 0.00 | 0.00 | 0.00 | 85 | 853.2 |
| 20260507134749 | 7 | 194 | 11.3 | 14.5 | 0.00 | 0.00 | 0.00 | 85 | 853.1 |
| 20260507134550 | 7 | 194 | 9.7 | 14.5 | 0.00 | 0.00 | 0.00 | 85 | 853.2 |
| 20260507134346 | 7 | 190 | 8.0 | 11.3 | 0.00 | 0.00 | 0.00 | 85 | 853.3 |
| 20260507134147 | 7 | 197 | 8.0 | 11.3 | 0.00 | 0.00 | 0.00 | 85 | 853.3 |
| 20260507133947 | 7 | 194 | 8.0 | 11.3 | 0.00 | 0.00 | 0.00 | 85 | 853.3 |
| 20260507133846 | 7 | 189 | 8.0 | 11.3 | 0.00 | 0.00 | 0.00 | 85 | 853.3 |
| 20260507133747 | 6 | 195 | 8.0 | 12.9 | 0.00 | 0.00 | 0.00 | 85 | 853.3 |
| 20260507133546 | 6 | 198 | 8.0 | 12.9 | 0.00 | 0.00 | 0.00 | 85 | 853.4 |
| 20260507133343 | 6 | 195 | 8.0 | 11.3 | 0.00 | 0.00 | 0.00 | 85 | 853.4 |
| 20260507133145 | 6 | 196 | 9.7 | 16.1 | 0.00 | 0.00 | 0.00 | 85 | 853.4 |
| 20260507132944 | 6 | 192 | 9.7 | 12.9 | 0.00 | 0.00 | 0.00 | 85 | 853.4 |
| 20260507132843 | 6 | 192 | 9.7 | 12.9 | 0.00 | 0.00 | 0.00 | 85 | 853.4 |
| 20260507132745 | 6 | 189 | 9.7 | 14.5 | 0.00 | 0.00 | 0.00 | 85 | 853.5 |
| 20260507132340 | 6 | 190 | 9.7 | 17.7 | 0.00 | 0.00 | 0.00 | 84 | 853.5 |
| 20260507132141 | 6 | 185 | 8.0 | 12.9 | 0.00 | 0.00 | 0.00 | 84 | 853.5 |
| 20260507131941 | 6 | 180 | 6.4 | 12.9 | 0.00 | 0.00 | 0.00 | 84 | 853.6 |
| 20260507131840 | 6 | 177 | 6.4 | 12.9 | 0.00 | 0.00 | 0.00 | 84 | 853.6 |
| 20260507131741 | 6 | 178 | 4.8 | 8.0 | 0.00 | 0.00 | 0.00 | 84 | 853.6 |
| 20260507131540 | 6 | 177 | 4.8 | 8.0 | 0.00 | 0.00 | 0.00 | 84 | 853.6 |
| 20260507131337 | 7 | 178 | 6.4 | 9.7 | 0.00 | 0.00 | 0.00 | 84 | 853.6 |
| 20260507131138 | 7 | 186 | 6.4 | 11.3 | 0.00 | 0.00 | 0.00 | 84 | 853.7 |
| 20260507130939 | 7 | 170 | 4.8 | 8.0 | 0.00 | 0.00 | 0.00 | 84 | 853.7 |
| 20260507130837 | 7 | 166 | 3.2 | 8.0 | 0.00 | 0.00 | 0.00 | 84 | 853.7 |
| 20260507130738 | 7 | 174 | 4.8 | 9.7 | 0.00 | 0.00 | 0.00 | 84 | 853.8 |
| 20260507130538 | 7 | 193 | 9.7 | 16.1 | 0.00 | 0.00 | 0.00 | 84 | 853.8 |
| 20260507130334 | 7 | 190 | 9.7 | 16.1 | 0.00 | 0.00 | 0.00 | 84 | 853.9 |
| 20260507130134 | 7 | 191 | 8.0 | 12.9 | 0.00 | 0.00 | 0.00 | 84 | 853.9 |
| 20260507125934 | 7 | 194 | 11.3 | 17.7 | 0.00 | 0.00 | 0.00 | 84 | 853.9 |
| 20260507125834 | 7 | 196 | 11.3 | 17.7 | 0.00 | 0.00 | 0.00 | 84 | 853.9 |
| 20260507125734 | 7 | 199 | 11.3 | 17.7 | 0.00 | 0.00 | 0.00 | 84 | 853.9 |
| 20260507125534 | 7 | 205 | 9.7 | 14.5 | 0.00 | 0.00 | 0.00 | 84 | 853.6 |
| 20260507125331 | 7 | 204 | 9.7 | 14.5 | 0.00 | 0.00 | 0.00 | 84 | 853.3 |
| 20260507125131 | 7 | 211 | 8.0 | 14.5 | 0.00 | 0.00 | 0.00 | 84 | 853.1 |
| 20260507124932 | 7 | 207 | 8.0 | 9.7 | 0.00 | 0.00 | 0.00 | 84 | 852.9 |
| 20260507124830 | 7 | 208 | 6.4 | 9.7 | 0.00 | 0.00 | 0.00 | 84 | 852.9 |
| 20260507124731 | 7 | 205 | 6.4 | 12.9 | 0.00 | 0.00 | 0.00 | 84 | 852.9 |
| 20260507124530 | 7 | 197 | 9.7 | 14.5 | 0.00 | 0.00 | 0.00 | 84 | 852.8 |
| 20260507124327 | 7 | 200 | 9.7 | 16.1 | 0.00 | 0.00 | 0.00 | 84 | 852.7 |
| 20260507124128 | 7 | 198 | 9.7 | 14.5 | 0.00 | 0.00 | 0.00 | 84 | 852.7 |
| 20260507123827 | 7 | 190 | 9.7 | 17.7 | 0.00 | 0.00 | 0.00 | 83 | 852.7 |
| 20260507123728 | 7 | 193 | 8.0 | 12.9 | 0.00 | 0.00 | 0.00 | 83 | 852.8 |
| 20260507123528 | 7 | 204 | 8.0 | 11.3 | 0.00 | 0.00 | 0.00 | 83 | 852.8 |
| 20260507123324 | 7 | 195 | 9.7 | 12.9 | 0.00 | 0.00 | 0.00 | 83 | 853.0 |
| 20260507123126 | 7 | 196 | 9.7 | 16.1 | 0.00 | 0.00 | 0.00 | 83 | 853.1 |
| 20260507122925 | 7 | 204 | 9.7 | 16.1 | 0.00 | 0.00 | 0.00 | 83 | 853.1 |
| 20260507122824 | 7 | 209 | 8.0 | 12.9 | 0.00 | 0.00 | 0.00 | 83 | 853.1 |
| 20260507122726 | 7 | 214 | 9.7 | 12.9 | 0.00 | 0.00 | 0.00 | 83 | 853.1 |
| 20260507122526 | 7 | 218 | 11.3 | 14.5 | 0.00 | 0.00 | 0.00 | 83 | 853.1 |
| 20260507122321 | 7 | 218 | 12.9 | 17.7 | 0.00 | 0.00 | 0.00 | 83 | 853.0 |
| 20260507122123 | 7 | 230 | 12.9 | 17.7 | 0.00 | 0.00 | 0.00 | 83 | 853.0 |
| 20260507121822 | 7 | 228 | 12.9 | 20.9 | 0.00 | 0.00 | 0.00 | 82 | 853.0 |
| 20260507121722 | 7 | 228 | 12.9 | 20.9 | 0.00 | 0.00 | 0.00 | 82 | 853.0 |
| 20260507121523 | 7 | 228 | 12.9 | 19.3 | 0.00 | 0.00 | 0.00 | 82 | 853.1 |
| 20260507121319 | 7 | 219 | 12.9 | 19.3 | 0.00 | 0.00 | 0.00 | 82 | 853.1 |
| 20260507120819 | 7 | 217 | 11.3 | 12.9 | 0.00 | 0.00 | 0.00 | 82 | 853.2 |
| 20260507120719 | 8 | 219 | 9.7 | 12.9 | 0.00 | 0.00 | 0.00 | 82 | 853.2 |
| 20260507120520 | 8 | 218 | 9.7 | 16.1 | 0.00 | 0.00 | 0.00 | 82 | 853.2 |
| 20260507120316 | 8 | 221 | 9.7 | 16.1 | 0.00 | 0.00 | 0.00 | 82 | 853.2 |
| 20260507120115 | 8 | 237 | 11.3 | 16.1 | 0.00 | 0.00 | 0.00 | 82 | 853.2 |
| 20260507115815 | 8 | 220 | 12.9 | 22.5 | 0.00 | 0.00 | 0.00 | 82 | 853.2 |
| 20260507115716 | 8 | 220 | 12.9 | 22.5 | 0.00 | 0.00 | 0.00 | 82 | 853.2 |
| 20260507115312 | 8 | 215 | 11.3 | 16.1 | 0.00 | 0.00 | 0.00 | 82 | 853.2 |
| 20260507115113 | 8 | 211 | 9.7 | 16.1 | 0.00 | 0.00 | 0.00 | 81 | 853.2 |
| 20260507114913 | 8 | 220 | 9.7 | 14.5 | 0.00 | 0.00 | 0.00 | 81 | 853.2 |
| 20260507114812 | 8 | 219 | 11.3 | 19.3 | 0.00 | 0.00 | 0.00 | 81 | 853.2 |
| 20260507114712 | 8 | 219 | 11.3 | 19.3 | 0.00 | 0.00 | 0.00 | 81 | 853.2 |
| 20260507114512 | 8 | 223 | 9.7 | 12.9 | 0.00 | 0.00 | 0.00 | 81 | 853.2 |
| 20260507114309 | 8 | 220 | 11.3 | 17.7 | 0.00 | 0.00 | 0.00 | 81 | 853.2 |
| 20260507114120 | 8 | 219 | 9.7 | 16.1 | 0.00 | 0.00 | 0.00 | 81 | 853.1 |
| 20260507113910 | 8 | 227 | 8.0 | 11.3 | 0.00 | 0.00 | 0.00 | 81 | 853.2 |
| 20260507113809 | 8 | 224 | 8.0 | 12.9 | 0.00 | 0.00 | 0.00 | 81 | 853.1 |
| 20260507113710 | 8 | 222 | 9.7 | 12.9 | 0.00 | 0.00 | 0.00 | 81 | 853.1 |
| 20260507113306 | 9 | 228 | 8.0 | 11.3 | 0.00 | 0.00 | 0.00 | 80 | 853.1 |
| 20260507113107 | 9 | 230 | 9.7 | 14.5 | 0.00 | 0.00 | 0.00 | 80 | 853.2 |
| 20260507112907 | 9 | 234 | 9.7 | 16.1 | 0.00 | 0.00 | 0.00 | 80 | 853.2 |
| 20260507112806 | 9 | 229 | 9.7 | 16.1 | 0.00 | 0.00 | 0.00 | 80 | 853.2 |
| 20260507112250 | 10 | 229 | 9.7 | 14.5 | 0.00 | 0.00 | 0.00 | 79 | 853.2 |
| 20260507112051 | 10 | 232 | 9.7 | 14.5 | 0.00 | 0.00 | 0.00 | 79 | 853.1 |
| 20260507111851 | 10 | 236 | 9.7 | 12.9 | 0.00 | 0.00 | 0.00 | 79 | 853.1 |
| 20260507111750 | 10 | 240 | 9.7 | 14.5 | 0.00 | 0.00 | 0.00 | 78 | 853.0 |
| 20260507111653 | 10 | 239 | 11.3 | 14.5 | 0.00 | 0.00 | 0.00 | 78 | 853.0 |
| 20260507111451 | 10 | 234 | 8.0 | 14.5 | 0.00 | 0.00 | 0.00 | 78 | 853.0 |
| 20260507111247 | 10 | 234 | 8.0 | 11.3 | 0.00 | 0.00 | 0.00 | 78 | 853.0 |
| 20260507111048 | 10 | 258 | 6.4 | 9.7 | 0.00 | 0.00 | 0.00 | 78 | 853.0 |
| 20260507110848 | 10 | 240 | 8.0 | 12.9 | 0.00 | 0.00 | 0.00 | 78 | 853.0 |
| 20260507110746 | 10 | 233 | 8.0 | 12.9 | 0.00 | 0.00 | 0.00 | 78 | 853.0 |
| 20260507110447 | 10 | 217 | 11.3 | 16.1 | 0.00 | 0.00 | 0.00 | 78 | 852.9 |
| 20260507110243 | 10 | 219 | 8.0 | 16.1 | 0.00 | 0.00 | 0.00 | 78 | 852.9 |
| 20260507110045 | 10 | 225 | 8.0 | 12.9 | 0.00 | 0.00 | 0.00 | 78 | 852.9 |
| 20260507105743 | 10 | 233 | 11.3 | 17.7 | 0.00 | 0.00 | 0.00 | 78 | 852.9 |
| 20260507105644 | 10 | 234 | 9.7 | 14.5 | 0.00 | 0.00 | 0.00 | 78 | 852.9 |
| 20260507105444 | 11 | 241 | 9.7 | 12.9 | 0.00 | 0.00 | 0.00 | 78 | 852.9 |
| 20260507105240 | 10 | 233 | 9.7 | 17.7 | 0.00 | 0.00 | 0.00 | 78 | 852.9 |
| 20260507105040 | 10 | 232 | 9.7 | 17.7 | 0.00 | 0.00 | 0.00 | 79 | 852.9 |
| 20260507104840 | 10 | 233 | 8.0 | 11.3 | 0.00 | 0.00 | 0.00 | 79 | 852.9 |
| 20260507104740 | 10 | 226 | 8.0 | 9.7 | 0.00 | 0.00 | 0.00 | 79 | 852.9 |
| 20260507104640 | 10 | 224 | 6.4 | 9.7 | 0.00 | 0.00 | 0.00 | 79 | 852.9 |
| 20260507104441 | 10 | 220 | 9.7 | 12.9 | 0.00 | 0.00 | 0.00 | 79 | 853.0 |
| 20260507104237 | 10 | 230 | 9.7 | 14.5 | 0.00 | 0.00 | 0.00 | 79 | 853.0 |
| 20260507104039 | 10 | 246 | 8.0 | 9.7 | 0.00 | 0.00 | 0.00 | 79 | 853.0 |
| 20260507104026 | 10 | 223 | 9.7 | 16.1 | 0.00 | 0.00 | 0.00 | 78 | 852.9 |
| 20260507103838 | 10 | 226 | 9.7 | 16.1 | 0.00 | 0.00 | 0.00 | 78 | 852.9 |
| 20260507103737 | 10 | 223 | 9.7 | 16.1 | 0.00 | 0.00 | 0.00 | 78 | 852.9 |
| 20260507103639 | 10 | 222 | 9.7 | 16.1 | 0.00 | 0.00 | 0.00 | 78 | 852.9 |
| 20260507103438 | 10 | 225 | 9.7 | 14.5 | 0.00 | 0.00 | 0.00 | 79 | 852.9 |
| 20260507103234 | 10 | 234 | 9.7 | 12.9 | 0.00 | 0.00 | 0.00 | 78 | 852.8 |
| 20260507103035 | 10 | 230 | 9.7 | 14.5 | 0.00 | 0.00 | 0.00 | 79 | 852.8 |
| 20260507102835 | 10 | 225 | 8.0 | 12.9 | 0.00 | 0.00 | 0.00 | 79 | 852.8 |
| 20260507102734 | 10 | 228 | 8.0 | 12.9 | 0.00 | 0.00 | 0.00 | 79 | 852.8 |
| 20260507102634 | 10 | 225 | 8.0 | 12.9 | 0.00 | 0.00 | 0.00 | 79 | 852.8 |
| 20260507102434 | 10 | 221 | 8.0 | 12.9 | 0.00 | 0.00 | 0.00 | 79 | 852.8 |
| 20260507102231 | 10 | 236 | 8.0 | 11.3 | 0.00 | 0.00 | 0.00 | 79 | 852.8 |
| 20260507102032 | 10 | 217 | 6.4 | 11.3 | 0.00 | 0.00 | 0.00 | 79 | 852.7 |
| 20260507101833 | 10 | 214 | 8.0 | 14.5 | 0.00 | 0.00 | 0.00 | 79 | 852.8 |
| 20260507101731 | 10 | 225 | 9.7 | 14.5 | 0.00 | 0.00 | 0.00 | 79 | 852.8 |
| 20260507101632 | 10 | 228 | 9.7 | 14.5 | 0.00 | 0.00 | 0.00 | 79 | 852.7 |
| 20260507101431 | 10 | 232 | 9.7 | 14.5 | 0.00 | 0.00 | 0.00 | 79 | 852.8 |
| 20260507101228 | 10 | 236 | 9.7 | 14.5 | 0.00 | 0.00 | 0.00 | 79 | 852.8 |
| 20260507101039 | 10 | 229 | 9.7 | 14.5 | 0.00 | 0.00 | 0.00 | 79 | 852.7 |
| 20260507101029 | 10 | 232 | 11.3 | 16.1 | 0.00 | 0.00 | 0.00 | 79 | 852.7 |
| 20260507100828 | 10 | 230 | 11.3 | 16.1 | 0.00 | 0.00 | 0.00 | 79 | 852.7 |
| 20260507100728 | 10 | 229 | 9.7 | 14.5 | 0.00 | 0.00 | 0.00 | 79 | 852.7 |
| 20260507100629 | 10 | 232 | 11.3 | 19.3 | 0.00 | 0.00 | 0.00 | 79 | 852.7 |
| 20260507100428 | 10 | 229 | 9.7 | 19.3 | 0.00 | 0.00 | 0.00 | 79 | 852.7 |
| 20260507100225 | 10 | 235 | 9.7 | 14.5 | 0.00 | 0.00 | 0.00 | 79 | 852.7 |
| 20260507100026 | 10 | 238 | 11.3 | 16.1 | 0.00 | 0.00 | 0.00 | 79 | 852.7 |
| 20260507095826 | 10 | 239 | 9.7 | 16.1 | 0.00 | 0.00 | 0.00 | 80 | 852.6 |
| 20260507095725 | 10 | 237 | 9.7 | 14.5 | 0.00 | 0.00 | 0.00 | 80 | 852.6 |
| 20260507095626 | 10 | 243 | 8.0 | 11.3 | 0.00 | 0.00 | 0.00 | 80 | 852.6 |
| 20260507095426 | 10 | 238 | 8.0 | 12.9 | 0.00 | 0.00 | 0.00 | 80 | 852.6 |
| 20260507095222 | 10 | 234 | 8.0 | 14.5 | 0.00 | 0.00 | 0.00 | 80 | 852.6 |
| 20260507095023 | 10 | 235 | 9.7 | 12.9 | 0.00 | 0.00 | 0.00 | 80 | 852.6 |
| 20260507094823 | 10 | 225 | 9.7 | 12.9 | 0.00 | 0.00 | 0.00 | 80 | 852.6 |
| 20260507094722 | 10 | 237 | 9.7 | 14.5 | 0.00 | 0.00 | 0.00 | 80 | 852.6 |
| 20260507094623 | 10 | 242 | 9.7 | 14.5 | 0.00 | 0.00 | 0.00 | 80 | 852.5 |
| 20260507094422 | 10 | 239 | 9.7 | 16.1 | 0.00 | 0.00 | 0.00 | 80 | 852.5 |
| 20260507094219 | 10 | 239 | 9.7 | 16.1 | 0.00 | 0.00 | 0.00 | 80 | 852.5 |
| 20260507094021 | 9 | 235 | 11.3 | 16.1 | 0.00 | 0.00 | 0.00 | 80 | 852.5 |
| 20260507093820 | 9 | 247 | 9.7 | 14.5 | 0.00 | 0.00 | 0.00 | 80 | 852.5 |
| 20260507093719 | 9 | 248 | 9.7 | 12.9 | 0.00 | 0.00 | 0.00 | 81 | 852.5 |
| 20260507093621 | 9 | 244 | 9.7 | 14.5 | 0.00 | 0.00 | 0.00 | 81 | 852.6 |
| 20260507093421 | 9 | 228 | 11.3 | 16.1 | 0.00 | 0.00 | 0.00 | 81 | 852.6 |
| 20260507093216 | 9 | 231 | 11.3 | 16.1 | 0.00 | 0.00 | 0.00 | 81 | 852.6 |
| 20260507093018 | 9 | 240 | 11.3 | 17.7 | 0.00 | 0.00 | 0.00 | 80 | 852.6 |
| 20260507092817 | 9 | 235 | 11.3 | 22.5 | 0.00 | 0.00 | 0.00 | 80 | 852.6 |
| 20260507092716 | 9 | 241 | 12.9 | 22.5 | 0.00 | 0.00 | 0.00 | 80 | 852.5 |
| 20260507092617 | 9 | 242 | 12.9 | 22.5 | 0.00 | 0.00 | 0.00 | 80 | 852.5 |
| 20260507092417 | 9 | 237 | 12.9 | 14.5 | 0.00 | 0.00 | 0.00 | 80 | 852.5 |
| 20260507092213 | 9 | 241 | 8.0 | 12.9 | 0.00 | 0.00 | 0.00 | 80 | 852.4 |
| 20260507092013 | 9 | 240 | 8.0 | 17.7 | 0.00 | 0.00 | 0.00 | 80 | 852.4 |
| 20260507091813 | 9 | 244 | 11.3 | 17.7 | 0.00 | 0.00 | 0.00 | 80 | 852.4 |
| 20260507091712 | 8 | 244 | 11.3 | 16.1 | 0.00 | 0.00 | 0.00 | 80 | 852.4 |
| 20260507091613 | 8 | 243 | 11.3 | 16.1 | 0.00 | 0.00 | 0.00 | 80 | 852.4 |
| 20260507091413 | 9 | 241 | 12.9 | 19.3 | 0.00 | 0.00 | 0.00 | 80 | 852.4 |
| 20260507091209 | 9 | 242 | 11.3 | 14.5 | 0.00 | 0.00 | 0.00 | 80 | 852.5 |
| 20260507091010 | 9 | 234 | 12.9 | 19.3 | 0.00 | 0.00 | 0.00 | 80 | 852.4 |
| 20260507090810 | 9 | 233 | 11.3 | 17.7 | 0.00 | 0.00 | 0.00 | 80 | 852.3 |
| 20260507090709 | 9 | 234 | 11.3 | 16.1 | 0.00 | 0.00 | 0.00 | 80 | 852.3 |
| 20260507090610 | 9 | 237 | 11.3 | 17.7 | 0.00 | 0.00 | 0.00 | 80 | 852.2 |
| 20260507090409 | 10 | 246 | 12.9 | 17.7 | 0.00 | 0.00 | 0.00 | 80 | 852.2 |
| 20260507090206 | 10 | 250 | 11.3 | 17.7 | 0.00 | 0.00 | 0.00 | 80 | 852.2 |
| 20260507090007 | 9 | 234 | 11.3 | 14.5 | 0.00 | 0.00 | 0.00 | 80 | 852.2 |
| 20260507085808 | 9 | 230 | 11.3 | 14.5 | 0.00 | 0.00 | 0.00 | 80 | 852.2 |
| 20260507085706 | 9 | 234 | 11.3 | 14.5 | 0.00 | 0.00 | 0.00 | 80 | 852.2 |
| 20260507085608 | 9 | 235 | 11.3 | 17.7 | 0.00 | 0.00 | 0.00 | 80 | 852.2 |
| 20260507085408 | 9 | 244 | 9.7 | 17.7 | 0.00 | 0.00 | 0.00 | 80 | 852.2 |
| 20260507085203 | 10 | 245 | 9.7 | 14.5 | 0.00 | 0.00 | 0.00 | 79 | 852.2 |
| 20260507084804 | 10 | 241 | 11.3 | 19.3 | 0.00 | 0.00 | 0.00 | 79 | 852.1 |
| 20260507084650 | 10 | 241 | 11.3 | 19.3 | 0.00 | 0.00 | 0.00 | 79 | 852.1 |
| 20260507084351 | 10 | 236 | 12.9 | 17.7 | 0.00 | 0.00 | 0.00 | 79 | 852.1 |
| 20260507084147 | 10 | 230 | 12.9 | 17.7 | 0.00 | 0.00 | 0.00 | 79 | 852.1 |
| 20260507083748 | 10 | 242 | 9.7 | 19.3 | 0.00 | 0.00 | 0.00 | 79 | 851.9 |
| 20260507083647 | 10 | 243 | 9.7 | 19.3 | 0.00 | 0.00 | 0.00 | 79 | 851.9 |
| 20260507083347 | 10 | 236 | 11.3 | 22.5 | 0.00 | 0.00 | 0.00 | 79 | 851.8 |
| 20260507083143 | 10 | 246 | 9.7 | 20.9 | 0.00 | 0.00 | 0.00 | 79 | 851.7 |
| 20260507082945 | 10 | 244 | 8.0 | 14.5 | 0.00 | 0.00 | 0.00 | 80 | 851.6 |
| 20260507082744 | 10 | 236 | 9.7 | 14.5 | 0.00 | 0.00 | 0.00 | 80 | 851.7 |
| 20260507082643 | 10 | 235 | 9.7 | 19.3 | 0.00 | 0.00 | 0.00 | 80 | 851.7 |
| 20260507082546 | 10 | 232 | 11.3 | 19.3 | 0.00 | 0.00 | 0.00 | 79 | 851.7 |
| 20260507082343 | 10 | 224 | 12.9 | 20.9 | 0.00 | 0.00 | 0.00 | 79 | 851.7 |
| 20260507082140 | 10 | 216 | 12.9 | 20.9 | 0.00 | 0.00 | 0.00 | 79 | 851.7 |
| 20260507081943 | 10 | 213 | 11.3 | 17.7 | 0.00 | 0.00 | 0.00 | 80 | 851.7 |
| 20260507081742 | 10 | 218 | 9.7 | 16.1 | 0.00 | 0.00 | 0.00 | 80 | 851.6 |
| 20260507081641 | 10 | 226 | 9.7 | 17.7 | 0.00 | 0.00 | 0.00 | 80 | 851.6 |
| 20260507081540 | 10 | 227 | 12.9 | 19.3 | 0.00 | 0.00 | 0.00 | 80 | 851.5 |
| 20260507081137 | 10 | 238 | 9.7 | 16.1 | 0.00 | 0.00 | 0.00 | 80 | 851.5 |
| 20260507080939 | 10 | 243 | 9.7 | 17.7 | 0.00 | 0.00 | 0.00 | 80 | 851.5 |
| 20260507080739 | 10 | 238 | 12.9 | 17.7 | 0.00 | 0.00 | 0.00 | 80 | 851.4 |
| 20260507080637 | 9 | 236 | 12.9 | 19.3 | 0.00 | 0.00 | 0.00 | 80 | 851.4 |
| 20260507080539 | 9 | 235 | 12.9 | 19.3 | 0.00 | 0.00 | 0.00 | 80 | 851.4 |
| 20260507080338 | 9 | 218 | 12.9 | 20.9 | 0.00 | 0.00 | 0.00 | 80 | 851.5 |
| 20260507080134 | 9 | 221 | 14.5 | 20.9 | 0.00 | 0.00 | 0.00 | 80 | 851.5 |
| 20260507075735 | 9 | 215 | 11.3 | 24.1 | 0.00 | 0.00 | 0.00 | 80 | 851.5 |
| 20260507075634 | 9 | 212 | 11.3 | 24.1 | 0.00 | 0.00 | 0.00 | 80 | 851.5 |
| 20260507075534 | 9 | 218 | 12.9 | 24.1 | 0.00 | 0.00 | 0.00 | 80 | 851.5 |
| 20260507075334 | 9 | 222 | 9.7 | 22.5 | 0.00 | 0.00 | 0.00 | 81 | 851.4 |
| 20260507075131 | 9 | 230 | 11.3 | 20.9 | 0.00 | 0.00 | 0.00 | 80 | 851.4 |
| 20260507074932 | 9 | 230 | 12.9 | 20.9 | 0.00 | 0.00 | 0.00 | 81 | 851.3 |
| 20260507074732 | 9 | 222 | 16.1 | 24.1 | 0.00 | 0.00 | 0.00 | 81 | 851.2 |
| 20260507074630 | 8 | 216 | 14.5 | 24.1 | 0.00 | 0.00 | 0.00 | 81 | 851.2 |
| 20260507074532 | 8 | 216 | 12.9 | 22.5 | 0.00 | 0.00 | 0.00 | 81 | 851.3 |
| 20260507074331 | 8 | 213 | 16.1 | 24.1 | 0.00 | 0.00 | 0.00 | 81 | 851.2 |
| 20260507074128 | 8 | 218 | 16.1 | 24.1 | 0.00 | 0.00 | 0.00 | 81 | 851.1 |
| 20260507073928 | 8 | 210 | 12.9 | 19.3 | 0.00 | 0.00 | 0.00 | 81 | 851.1 |
| 20260507073728 | 8 | 203 | 12.9 | 24.1 | 0.00 | 0.00 | 0.00 | 81 | 851.1 |
| 20260507073628 | 8 | 211 | 12.9 | 24.1 | 0.00 | 0.00 | 0.00 | 81 | 851.1 |
| 20260507073528 | 8 | 215 | 11.3 | 24.1 | 0.00 | 0.00 | 0.00 | 81 | 851.1 |
| 20260507073329 | 8 | 214 | 11.3 | 24.1 | 0.00 | 0.00 | 0.00 | 81 | 851.1 |
| 20260507073125 | 8 | 209 | 11.3 | 19.3 | 0.00 | 0.00 | 0.00 | 81 | 851.2 |
| 20260507072926 | 8 | 210 | 14.5 | 22.5 | 0.00 | 0.00 | 0.00 | 81 | 851.2 |
| 20260507072727 | 8 | 203 | 12.9 | 22.5 | 0.00 | 0.00 | 0.00 | 81 | 851.1 |
| 20260507072625 | 8 | 209 | 12.9 | 22.5 | 0.00 | 0.00 | 0.00 | 81 | 851.1 |
| 20260507072526 | 8 | 203 | 12.9 | 22.5 | 0.00 | 0.00 | 0.00 | 81 | 851.1 |
| 20260507072326 | 8 | 202 | 14.5 | 22.5 | 0.00 | 0.00 | 0.00 | 81 | 851.0 |
| 20260507072122 | 8 | 209 | 11.3 | 22.5 | 0.00 | 0.00 | 0.00 | 81 | 850.9 |
| 20260507071924 | 8 | 201 | 11.3 | 17.7 | 0.00 | 0.00 | 0.00 | 81 | 850.9 |
| 20260507071722 | 8 | 214 | 9.7 | 19.3 | 0.00 | 0.00 | 0.00 | 81 | 850.8 |
| 20260507071622 | 8 | 212 | 9.7 | 19.3 | 0.00 | 0.00 | 0.00 | 81 | 850.8 |
| 20260507071523 | 8 | 208 | 8.0 | 16.1 | 0.00 | 0.00 | 0.00 | 81 | 850.8 |
| 20260507071323 | 8 | 183 | 8.0 | 12.9 | 0.00 | 0.00 | 0.00 | 81 | 850.8 |
| 20260507071119 | 8 | 185 | 9.7 | 17.7 | 0.00 | 0.00 | 0.00 | 81 | 850.9 |
| 20260507070919 | 8 | 189 | 11.3 | 22.5 | 0.00 | 0.00 | 0.00 | 82 | 850.9 |
| 20260507070719 | 8 | 199 | 9.7 | 20.9 | 0.00 | 0.00 | 0.00 | 82 | 850.8 |
| 20260507070618 | 8 | 202 | 9.7 | 16.1 | 0.00 | 0.00 | 0.00 | 82 | 850.9 |
| 20260507070520 | 8 | 193 | 9.7 | 16.1 | 0.00 | 0.00 | 0.00 | 82 | 850.9 |
| 20260507070330 | 8 | 230 | 8.0 | 16.1 | 0.00 | 0.00 | 0.00 | 82 | 850.8 |
| 20260507070115 | 8 | 220 | 6.4 | 16.1 | 0.00 | 0.00 | 0.00 | 82 | 850.7 |
| 20260507065917 | 8 | 234 | 6.4 | 12.9 | 0.00 | 0.00 | 0.00 | 82 | 850.6 |
| 20260507065716 | 8 | 233 | 11.3 | 17.7 | 0.00 | 0.00 | 0.00 | 82 | 850.6 |
| 20260507065615 | 8 | 231 | 9.7 | 17.7 | 0.00 | 0.00 | 0.00 | 82 | 850.6 |
| 20260507065112 | 8 | 203 | 12.9 | 20.9 | 0.00 | 0.00 | 0.00 | 82 | 850.5 |
| 20260507064913 | 8 | 204 | 14.5 | 25.7 | 0.00 | 0.00 | 0.00 | 82 | 850.5 |
| 20260507064714 | 8 | 207 | 16.1 | 25.7 | 0.00 | 0.00 | 0.00 | 82 | 850.5 |
| 20260507064612 | 8 | 200 | 16.1 | 25.7 | 0.00 | 0.00 | 0.00 | 82 | 850.5 |
| 20260507064313 | 8 | 201 | 17.7 | 30.6 | 0.00 | 0.00 | 0.00 | 82 | 850.5 |
| 20260507064110 | 8 | 206 | 14.5 | 25.7 | 0.00 | 0.00 | 0.00 | 82 | 850.5 |
| 20260507063911 | 8 | 206 | 9.7 | 19.3 | 0.00 | 0.00 | 0.00 | 82 | 850.5 |
| 20260507063711 | 8 | 210 | 16.1 | 35.4 | 0.00 | 0.00 | 0.00 | 82 | 850.5 |
| 20260507063610 | 8 | 206 | 17.7 | 35.4 | 0.00 | 0.00 | 0.00 | 82 | 850.5 |
| 20260507063510 | 8 | 208 | 17.7 | 24.1 | 0.00 | 0.00 | 0.00 | 82 | 850.5 |
| 20260507063310 | 8 | 207 | 17.7 | 24.1 | 0.00 | 0.00 | 0.00 | 82 | 850.3 |
| 20260507063107 | 7 | 199 | 24.1 | 35.4 | 0.00 | 0.00 | 0.00 | 82 | 850.3 |
| 20260507062907 | 7 | 203 | 24.1 | 35.4 | 0.00 | 0.00 | 0.00 | 82 | 850.3 |
| 20260507062707 | 7 | 199 | 20.9 | 29.0 | 0.00 | 0.00 | 0.00 | 82 | 850.3 |
| 20260507062607 | 7 | 201 | 22.5 | 35.4 | 0.00 | 0.00 | 0.00 | 82 | 850.3 |
| 20260507062508 | 7 | 197 | 24.1 | 35.4 | 0.00 | 0.00 | 0.00 | 82 | 850.3 |
| 20260507062308 | 7 | 193 | 22.5 | 33.8 | 0.00 | 0.00 | 0.00 | 82 | 850.3 |
| 20260507062104 | 7 | 194 | 20.9 | 32.2 | 0.00 | 0.00 | 0.00 | 82 | 850.3 |
| 20260507061905 | 7 | 191 | 22.5 | 32.2 | 0.00 | 0.00 | 0.00 | 82 | 850.2 |
| 20260507061706 | 7 | 191 | 20.9 | 37.0 | 0.00 | 0.00 | 0.00 | 82 | 850.2 |
| 20260507061604 | 8 | 191 | 22.5 | 37.0 | 0.00 | 0.00 | 0.00 | 82 | 850.1 |
| 20260507061506 | 8 | 193 | 22.5 | 30.6 | 0.00 | 0.00 | 0.00 | 82 | 850.1 |
| 20260507061306 | 8 | 198 | 24.1 | 33.8 | 0.00 | 0.00 | 0.00 | 82 | 850.1 |
| 20260507061047 | 8 | 198 | 22.5 | 29.0 | 0.00 | 0.00 | 0.00 | 82 | 850.1 |
| 20260507060849 | 8 | 203 | 19.3 | 29.0 | 0.00 | 0.00 | 0.00 | 83 | 850.1 |
| 20260507060649 | 7 | 199 | 22.5 | 35.4 | 0.00 | 0.00 | 0.00 | 83 | 850.0 |
| 20260507060547 | 7 | 199 | 22.5 | 35.4 | 0.00 | 0.00 | 0.00 | 83 | 850.0 |
| 20260507060449 | 7 | 199 | 20.9 | 35.4 | 0.00 | 0.00 | 0.00 | 83 | 850.0 |
| 20260507060248 | 7 | 195 | 19.3 | 35.4 | 0.00 | 0.00 | 0.00 | 83 | 850.0 |
| 20260507060044 | 7 | 194 | 20.9 | 35.4 | 0.00 | 0.00 | 0.00 | 83 | 850.0 |
| 20260507055846 | 7 | 199 | 20.9 | 37.0 | 0.00 | 0.00 | 0.00 | 83 | 850.0 |
| 20260507055645 | 7 | 193 | 19.3 | 24.1 | 0.00 | 0.00 | 0.00 | 83 | 850.0 |
| 20260507055544 | 7 | 189 | 19.3 | 30.6 | 0.00 | 0.00 | 0.00 | 83 | 850.0 |
| 20260507055446 | 7 | 190 | 20.9 | 30.6 | 0.00 | 0.00 | 0.00 | 83 | 850.0 |
| 20260507055245 | 7 | 193 | 19.3 | 30.6 | 0.00 | 0.00 | 0.00 | 83 | 850.0 |
| 20260507055041 | 7 | 193 | 20.9 | 35.4 | 0.00 | 0.00 | 0.00 | 83 | 850.0 |
| 20260507054844 | 7 | 194 | 22.5 | 40.2 | 0.00 | 0.00 | 0.00 | 83 | 850.0 |
| 20260507054541 | 7 | 194 | 22.5 | 38.6 | 0.00 | 0.00 | 0.00 | 82 | 850.0 |
| 20260507054442 | 7 | 195 | 20.9 | 33.8 | 0.00 | 0.00 | 0.00 | 83 | 850.1 |
| 20260507054243 | 7 | 191 | 20.9 | 30.6 | 0.00 | 0.00 | 0.00 | 83 | 850.1 |
| 20260507054038 | 7 | 191 | 19.3 | 27.4 | 0.00 | 0.00 | 0.00 | 83 | 850.1 |
| 20260507053839 | 7 | 193 | 17.7 | 25.7 | 0.00 | 0.00 | 0.00 | 83 | 850.1 |
| 20260507053639 | 7 | 193 | 17.7 | 25.7 | 0.00 | 0.00 | 0.00 | 83 | 850.1 |
| 20260507053537 | 7 | 188 | 20.9 | 25.7 | 0.00 | 0.00 | 0.00 | 83 | 850.1 |
| 20260507053439 | 7 | 188 | 22.5 | 33.8 | 0.00 | 0.00 | 0.00 | 83 | 850.1 |
| 20260507053238 | 7 | 190 | 24.1 | 35.4 | 0.00 | 0.00 | 0.00 | 83 | 850.0 |
| 20260507053035 | 7 | 191 | 22.5 | 35.4 | 0.00 | 0.00 | 0.00 | 83 | 850.0 |
| 20260507052835 | 7 | 180 | 19.3 | 27.4 | 0.00 | 0.00 | 0.00 | 83 | 850.0 |
| 20260507052635 | 7 | 184 | 16.1 | 33.8 | 0.00 | 0.00 | 0.00 | 83 | 849.9 |
| 20260507052535 | 7 | 186 | 19.3 | 33.8 | 0.00 | 0.00 | 0.00 | 83 | 849.9 |
| 20260507052235 | 7 | 182 | 19.3 | 30.6 | 0.00 | 0.00 | 0.00 | 83 | 849.9 |
| 20260507052032 | 7 | 181 | 19.3 | 30.6 | 0.00 | 0.00 | 0.00 | 83 | 849.9 |
| 20260507051833 | 7 | 183 | 19.3 | 35.4 | 0.00 | 0.00 | 0.00 | 83 | 850.0 |
| 20260507051633 | 7 | 187 | 20.9 | 37.0 | 0.00 | 0.00 | 0.00 | 83 | 850.0 |
| 20260507051532 | 7 | 186 | 22.5 | 37.0 | 0.00 | 0.00 | 0.00 | 84 | 850.0 |
| 20260507051430 | 7 | 188 | 22.5 | 37.0 | 0.00 | 0.00 | 0.00 | 84 | 850.0 |
| 20260507051230 | 7 | 179 | 19.3 | 32.2 | 0.00 | 0.00 | 0.00 | 84 | 850.0 |
| 20260507051025 | 7 | 184 | 16.1 | 29.0 | 0.00 | 0.00 | 0.00 | 84 | 850.1 |
| 20260507050826 | 7 | 187 | 17.7 | 27.4 | 0.00 | 0.00 | 0.00 | 84 | 850.1 |
| 20260507050627 | 7 | 192 | 17.7 | 29.0 | 0.00 | 0.00 | 0.00 | 84 | 850.1 |
| 20260507050525 | 7 | 194 | 16.1 | 29.0 | 0.00 | 0.00 | 0.00 | 84 | 850.1 |
| 20260507050427 | 7 | 191 | 17.7 | 29.0 | 0.00 | 0.00 | 0.00 | 84 | 850.1 |
| 20260507050226 | 7 | 185 | 16.1 | 24.1 | 0.00 | 0.00 | 0.00 | 84 | 850.1 |
| 20260507050023 | 7 | 185 | 16.1 | 27.4 | 0.00 | 0.00 | 0.00 | 84 | 850.1 |
| 20260507045824 | 7 | 191 | 19.3 | 29.0 | 0.00 | 0.00 | 0.00 | 84 | 850.0 |
| 20260507045624 | 7 | 182 | 19.3 | 29.0 | 0.00 | 0.00 | 0.00 | 84 | 850.0 |
| 20260507045522 | 7 | 176 | 17.7 | 25.7 | 0.00 | 0.00 | 0.00 | 84 | 850.0 |
| 20260507045420 | 7 | 180 | 17.7 | 29.0 | 0.00 | 0.00 | 0.00 | 83 | 850.0 |
| 20260507045219 | 7 | 185 | 19.3 | 32.2 | 0.00 | 0.00 | 0.00 | 84 | 849.9 |
| 20260507045016 | 7 | 183 | 14.5 | 24.1 | 0.00 | 0.00 | 0.00 | 84 | 849.7 |
| 20260507044617 | 7 | 174 | 14.5 | 20.9 | 0.00 | 0.00 | 0.00 | 84 | 849.6 |
| 20260507044516 | 7 | 180 | 16.1 | 20.9 | 0.00 | 0.00 | 0.00 | 84 | 849.6 |
| 20260507044416 | 7 | 182 | 17.7 | 32.2 | 0.00 | 0.00 | 0.00 | 84 | 849.6 |
| 20260507044216 | 6 | 180 | 19.3 | 32.2 | 0.00 | 0.00 | 0.00 | 84 | 849.5 |
| 20260507044013 | 6 | 181 | 20.9 | 38.6 | 0.00 | 0.00 | 0.00 | 84 | 849.5 |
| 20260507043813 | 6 | 176 | 19.3 | 40.2 | 0.00 | 0.00 | 0.00 | 84 | 849.5 |
| 20260507043513 | 6 | 180 | 19.3 | 30.6 | 0.00 | 0.00 | 0.00 | 84 | 849.5 |
| 20260507043413 | 6 | 174 | 20.9 | 30.6 | 0.00 | 0.00 | 0.00 | 84 | 849.5 |
| 20260507043214 | 6 | 184 | 24.1 | 35.4 | 0.00 | 0.00 | 0.00 | 84 | 849.5 |
| 20260507043010 | 6 | 185 | 22.5 | 35.4 | 0.00 | 0.00 | 0.00 | 84 | 849.5 |
| 20260507042812 | 6 | 185 | 20.9 | 29.0 | 0.00 | 0.00 | 0.00 | 84 | 849.5 |
| 20260507042611 | 6 | 187 | 20.9 | 32.2 | 0.00 | 0.00 | 0.00 | 84 | 849.5 |
| 20260507042510 | 6 | 186 | 20.9 | 32.2 | 0.00 | 0.00 | 0.00 | 84 | 849.5 |
| 20260507042412 | 6 | 189 | 20.9 | 38.6 | 0.00 | 0.00 | 0.00 | 84 | 849.5 |
| 20260507042213 | 6 | 193 | 22.5 | 38.6 | 0.00 | 0.00 | 0.00 | 84 | 849.5 |
| 20260507042007 | 6 | 191 | 20.9 | 27.4 | 0.00 | 0.00 | 0.00 | 84 | 849.6 |
| 20260507041808 | 6 | 193 | 19.3 | 27.4 | 0.00 | 0.00 | 0.00 | 84 | 849.6 |
| 20260507041608 | 6 | 191 | 24.1 | 37.0 | 0.00 | 0.00 | 0.00 | 84 | 849.5 |
| 20260507041507 | 6 | 190 | 25.7 | 37.0 | 0.00 | 0.00 | 0.00 | 84 | 849.5 |
| 20260507041407 | 6 | 189 | 25.7 | 37.0 | 0.00 | 0.00 | 0.00 | 84 | 849.5 |
| 20260507041208 | 6 | 186 | 24.1 | 40.2 | 0.00 | 0.00 | 0.00 | 84 | 849.5 |
| 20260507041004 | 6 | 184 | 25.7 | 40.2 | 0.00 | 0.00 | 0.00 | 84 | 849.5 |
| 20260507040805 | 6 | 184 | 25.7 | 46.7 | 0.00 | 0.00 | 0.00 | 84 | 849.4 |
| 20260507040606 | 6 | 187 | 24.1 | 46.7 | 0.00 | 0.00 | 0.00 | 84 | 849.3 |
| 20260507040504 | 6 | 188 | 24.1 | 51.5 | 0.00 | 0.00 | 0.00 | 84 | 849.3 |
| 20260507040405 | 6 | 189 | 24.1 | 51.5 | 0.00 | 0.00 | 0.00 | 84 | 849.3 |
| 20260507040205 | 6 | 189 | 24.1 | 40.2 | 0.00 | 0.00 | 0.00 | 84 | 849.4 |
| 20260507040001 | 6 | 189 | 27.4 | 43.5 | 0.00 | 0.00 | 0.00 | 84 | 849.3 |
| 20260507035802 | 6 | 192 | 27.4 | 43.5 | 0.00 | 0.00 | 0.00 | 84 | 849.3 |
| 20260507035602 | 6 | 194 | 24.1 | 37.0 | 0.00 | 0.00 | 0.00 | 84 | 849.3 |
| 20260507035502 | -17 | 193 | 22.5 | 32.2 | 0.00 | 0.00 | 0.00 | ||
| 20260507035402 | 6 | 190 | 25.7 | 43.5 | 0.00 | 0.00 | 0.00 | 84 | 849.3 |
| 20260507035202 | 6 | 191 | 27.4 | 43.5 | 0.00 | 0.00 | 0.00 | 84 | 849.3 |
| 20260507034958 | 6 | 189 | 29.0 | 41.8 | 0.00 | 0.00 | 0.00 | 84 | 849.3 |
| 20260507034759 | 6 | 198 | 27.4 | 41.8 | 0.00 | 0.00 | 0.00 | 84 | 849.3 |
| 20260507034559 | 6 | 194 | 25.7 | 40.2 | 0.00 | 0.00 | 0.00 | 83 | 849.3 |
| 20260507034458 | 6 | 190 | 25.7 | 40.2 | 0.00 | 0.00 | 0.00 | 84 | 849.3 |
| 20260507034158 | 6 | 188 | 27.4 | 43.5 | 0.00 | 0.00 | 0.00 | 83 | 849.3 |
| 20260507033955 | 6 | 190 | 22.5 | 35.4 | 0.00 | 0.00 | 0.00 | 83 | 849.3 |
| 20260507033757 | 6 | 188 | 24.1 | 43.5 | 0.00 | 0.00 | 0.00 | 83 | 849.3 |
| 20260507033556 | 6 | 189 | 25.7 | 43.5 | 0.00 | 0.00 | 0.00 | 83 | 849.3 |
| 20260507033442 | 6 | 188 | 24.1 | 38.6 | 0.00 | 0.00 | 0.00 | 83 | 849.3 |
| 20260507033342 | 6 | 191 | 25.7 | 40.2 | 0.00 | 0.00 | 0.00 | 83 | 849.3 |
| 20260507033142 | 6 | 189 | 27.4 | 40.2 | 0.00 | 0.00 | 0.00 | 83 | 849.3 |
| 20260507032939 | 6 | 191 | 25.7 | 35.4 | 0.00 | 0.00 | 0.00 | 83 | 849.4 |
| 20260507032740 | 6 | 183 | 22.5 | 35.4 | 0.00 | 0.00 | 0.00 | 83 | 849.4 |
| 20260507032540 | 6 | 182 | 19.3 | 35.4 | 0.00 | 0.00 | 0.00 | 83 | 849.4 |
| 20260507032438 | 6 | 181 | 19.3 | 35.4 | 0.00 | 0.00 | 0.00 | 83 | 849.4 |
| 20260507032340 | 6 | 184 | 20.9 | 35.4 | 0.00 | 0.00 | 0.00 | 83 | 849.4 |
| 20260507032141 | 6 | 189 | 22.5 | 35.4 | 0.00 | 0.00 | 0.00 | 83 | 849.5 |
| 20260507031935 | 6 | 183 | 24.1 | 40.2 | 0.00 | 0.00 | 0.00 | 83 | 849.5 |
| 20260507031739 | 6 | 181 | 22.5 | 40.2 | 0.00 | 0.00 | 0.00 | 83 | 849.5 |
| 20260507031539 | 6 | 186 | 22.5 | 32.2 | 0.00 | 0.00 | 0.00 | 83 | 849.5 |
| 20260507031435 | 6 | 187 | 24.1 | 38.6 | 0.00 | 0.00 | 0.00 | 83 | 849.5 |
| 20260507031333 | 6 | 189 | 24.1 | 38.6 | 0.00 | 0.00 | 0.00 | 83 | 849.5 |
| 20260507031133 | 6 | 190 | 19.3 | 30.6 | 0.00 | 0.00 | 0.00 | 83 | 849.5 |
| 20260507030929 | 6 | 191 | 17.7 | 24.1 | 0.00 | 0.00 | 0.00 | 83 | 849.5 |
| 20260507030731 | 6 | 188 | 17.7 | 30.6 | 0.00 | 0.00 | 0.00 | 82 | 849.4 |
| 20260507030531 | 6 | 183 | 17.7 | 30.6 | 0.00 | 0.00 | 0.00 | 82 | 849.4 |
| 20260507030429 | 6 | 180 | 16.1 | 30.6 | 0.00 | 0.00 | 0.00 | 82 | 849.4 |
| 20260507030330 | 6 | 179 | 14.5 | 24.1 | 0.00 | 0.00 | 0.00 | 82 | 849.4 |
| 20260507030130 | 6 | 172 | 17.7 | 27.4 | 0.00 | 0.00 | 0.00 | 82 | 849.3 |
| 20260507025926 | 6 | 180 | 16.1 | 32.2 | 0.00 | 0.00 | 0.00 | 82 | 849.4 |
| 20260507025728 | 6 | 177 | 19.3 | 32.2 | 0.00 | 0.00 | 0.00 | 82 | 849.5 |
| 20260507025527 | 6 | 181 | 16.1 | 27.4 | 0.00 | 0.00 | 0.00 | 82 | 849.5 |
| 20260507025426 | 6 | 181 | 16.1 | 30.6 | 0.00 | 0.00 | 0.00 | 82 | 849.6 |
| 20260507025327 | 6 | 185 | 16.1 | 33.8 | 0.00 | 0.00 | 0.00 | 82 | 849.6 |
| 20260507025126 | 6 | 185 | 17.7 | 33.8 | 0.00 | 0.00 | 0.00 | 82 | 849.6 |
| 20260507024923 | 6 | 188 | 16.1 | 30.6 | 0.00 | 0.00 | 0.00 | 82 | 849.6 |
| 20260507024724 | 6 | 187 | 17.7 | 32.2 | 0.00 | 0.00 | 0.00 | 82 | 849.7 |
| 20260507024524 | 6 | 176 | 16.1 | 24.1 | 0.00 | 0.00 | 0.00 | 82 | 849.7 |
| 20260507024423 | 6 | 180 | 14.5 | 24.1 | 0.00 | 0.00 | 0.00 | 82 | 849.7 |
| 20260507024324 | 6 | 179 | 16.1 | 25.7 | 0.00 | 0.00 | 0.00 | 82 | 849.8 |
| 20260507024124 | 6 | 180 | 19.3 | 27.4 | 0.00 | 0.00 | 0.00 | 82 | 849.7 |
| 20260507023920 | 6 | 188 | 19.3 | 27.4 | 0.00 | 0.00 | 0.00 | 81 | 849.8 |
| 20260507023722 | 6 | 186 | 16.1 | 27.4 | 0.00 | 0.00 | 0.00 | 81 | 849.8 |
| 20260507023521 | 6 | 194 | 16.1 | 30.6 | 0.00 | 0.00 | 0.00 | 81 | 849.8 |
| 20260507023420 | 6 | 196 | 16.1 | 30.6 | 0.00 | 0.00 | 0.00 | 81 | 849.7 |
| 20260507023322 | 6 | 196 | 17.7 | 30.6 | 0.00 | 0.00 | 0.00 | 81 | 849.7 |
| 20260507023121 | 6 | 199 | 14.5 | 25.7 | 0.00 | 0.00 | 0.00 | 81 | 849.7 |
| 20260507022917 | 6 | 201 | 9.7 | 20.9 | 0.00 | 0.00 | 0.00 | 81 | 849.8 |
| 20260507022719 | 6 | 196 | 12.9 | 19.3 | 0.00 | 0.00 | 0.00 | 81 | 849.8 |
| 20260507022518 | 6 | 188 | 12.9 | 19.3 | 0.00 | 0.00 | 0.00 | 81 | 849.8 |
| 20260507022417 | 6 | 198 | 11.3 | 19.3 | 0.00 | 0.00 | 0.00 | 81 | 849.8 |
| 20260507022318 | 6 | 197 | 12.9 | 25.7 | 0.00 | 0.00 | 0.00 | 81 | 849.7 |
| 20260507022118 | 6 | 192 | 16.1 | 25.7 | 0.00 | 0.00 | 0.00 | 81 | 849.7 |
| 20260507021914 | 6 | 180 | 12.9 | 24.1 | 0.00 | 0.00 | 0.00 | 81 | 849.6 |
| 20260507021715 | 6 | 174 | 14.5 | 22.5 | 0.00 | 0.00 | 0.00 | 81 | 849.5 |
| 20260507021515 | 6 | 184 | 16.1 | 24.1 | 0.00 | 0.00 | 0.00 | 81 | 849.5 |
| 20260507021414 | 6 | 182 | 17.7 | 25.7 | 0.00 | 0.00 | 0.00 | 81 | 849.5 |
| 20260507021315 | 6 | 181 | 19.3 | 29.0 | 0.00 | 0.00 | 0.00 | 81 | 849.6 |
| 20260507021115 | 6 | 183 | 16.1 | 29.0 | 0.00 | 0.00 | 0.00 | 81 | 849.7 |
| 20260507020911 | 6 | 185 | 14.5 | 24.1 | 0.00 | 0.00 | 0.00 | 81 | 849.7 |
| 20260507020712 | 6 | 185 | 14.5 | 22.5 | 0.00 | 0.00 | 0.00 | 81 | 849.8 |
| 20260507020512 | 6 | 186 | 14.5 | 22.5 | 0.00 | 0.00 | 0.00 | 81 | 849.7 |
| 20260507020411 | 6 | 186 | 16.1 | 27.4 | 0.00 | 0.00 | 0.00 | 81 | 849.7 |
| 20260507020312 | 6 | 189 | 16.1 | 27.4 | 0.00 | 0.00 | 0.00 | 81 | 849.7 |
| 20260507020112 | 6 | 190 | 11.3 | 20.9 | 0.00 | 0.00 | 0.00 | 81 | 849.7 |
| 20260507015908 | 6 | 180 | 12.9 | 22.5 | 0.00 | 0.00 | 0.00 | 81 | 849.7 |
| 20260507015709 | 6 | 178 | 12.9 | 29.0 | 0.00 | 0.00 | 0.00 | 81 | 849.7 |
| 20260507015509 | 6 | 189 | 16.1 | 30.6 | 0.00 | 0.00 | 0.00 | 81 | 849.7 |
| 20260507015408 | 6 | 193 | 12.9 | 30.6 | 0.00 | 0.00 | 0.00 | 81 | 849.8 |
| 20260507015309 | 6 | 191 | 12.9 | 20.9 | 0.00 | 0.00 | 0.00 | 81 | 849.8 |
| 20260507015109 | 6 | 197 | 11.3 | 19.3 | 0.00 | 0.00 | 0.00 | 81 | 849.9 |
| 20260507014905 | 6 | 202 | 9.7 | 19.3 | 0.00 | 0.00 | 0.00 | 81 | 849.9 |
| 20260507014705 | 6 | 216 | 8.0 | 16.1 | 0.00 | 0.00 | 0.00 | 81 | 849.9 |
| 20260507014505 | 6 | 216 | 8.0 | 16.1 | 0.00 | 0.00 | 0.00 | 81 | 849.8 |
| 20260507014405 | 6 | 210 | 8.0 | 16.1 | 0.00 | 0.00 | 0.00 | 81 | 849.8 |
| 20260507014305 | 6 | 201 | 8.0 | 16.1 | 0.00 | 0.00 | 0.00 | 81 | 849.7 |
| 20260507014105 | 6 | 188 | 11.3 | 20.9 | 0.00 | 0.00 | 0.00 | 81 | 849.6 |
| 20260507013902 | 6 | 183 | 12.9 | 22.5 | 0.00 | 0.00 | 0.00 | 81 | 849.6 |
| 20260507013704 | 6 | 196 | 12.9 | 22.5 | 0.00 | 0.00 | 0.00 | 81 | 849.6 |
| 20260507013503 | 6 | 195 | 12.9 | 29.0 | 0.00 | 0.00 | 0.00 | 81 | 849.5 |
| 20260507013402 | 6 | 191 | 12.9 | 29.0 | 0.00 | 0.00 | 0.00 | 81 | 849.5 |
| 20260507013304 | 6 | 188 | 12.9 | 29.0 | 0.00 | 0.00 | 0.00 | 81 | 849.5 |
| 20260507013103 | 6 | 180 | 11.3 | 19.3 | 0.00 | 0.00 | 0.00 | 81 | 849.4 |
| 20260507012859 | 6 | 183 | 16.1 | 29.0 | 0.00 | 0.00 | 0.00 | 81 | 849.3 |
| 20260507012700 | 6 | 191 | 16.1 | 29.0 | 0.00 | 0.00 | 0.00 | 81 | 849.3 |
| 20260507012500 | 6 | 185 | 14.5 | 22.5 | 0.00 | 0.00 | 0.00 | 81 | 849.3 |
| 20260507012359 | 6 | 188 | 16.1 | 22.5 | 0.00 | 0.00 | 0.00 | 81 | 849.2 |
| 20260507012300 | 6 | 185 | 16.1 | 22.5 | 0.00 | 0.00 | 0.00 | 81 | 849.2 |
| 20260507012110 | 6 | 188 | 14.5 | 24.1 | 0.00 | 0.00 | 0.00 | 81 | 849.2 |
| 20260507011856 | 6 | 190 | 19.3 | 33.8 | 0.00 | 0.00 | 0.00 | 81 | 849.2 |
| 20260507011658 | 6 | 193 | 16.1 | 27.4 | 0.00 | 0.00 | 0.00 | 80 | 849.3 |
| 20260507011457 | 6 | 200 | 14.5 | 29.0 | 0.00 | 0.00 | 0.00 | 80 | 849.3 |
| 20260507011356 | 6 | 204 | 14.5 | 29.0 | 0.00 | 0.00 | 0.00 | 80 | 849.2 |
| 20260507011258 | 6 | 197 | 14.5 | 29.0 | 0.00 | 0.00 | 0.00 | 80 | 849.2 |
| 20260507011058 | 6 | 186 | 16.1 | 37.0 | 0.00 | 0.00 | 0.00 | 80 | 849.2 |
| 20260507010853 | 6 | 190 | 20.9 | 43.5 | 0.00 | 0.00 | 0.00 | 80 | 849.1 |
| 20260507010454 | 6 | 187 | 16.1 | 41.8 | 0.00 | 0.00 | 0.00 | 80 | 849.0 |
| 20260507010353 | 6 | 188 | 19.3 | 41.8 | 0.00 | 0.00 | 0.00 | 80 | 849.0 |
| 20260507010254 | 6 | 185 | 19.3 | 32.2 | 0.00 | 0.00 | 0.00 | 80 | 849.0 |
| 20260507010054 | 6 | 182 | 17.7 | 27.4 | 0.00 | 0.00 | 0.00 | 80 | 849.0 |
| 20260507005838 | 7 | 182 | 19.3 | 29.0 | 0.00 | 0.00 | 0.00 | 80 | 849.0 |
| 20260507005638 | 7 | 181 | 20.9 | 37.0 | 0.00 | 0.00 | 0.00 | 80 | 848.9 |
| 20260507005438 | 7 | 183 | 22.5 | 37.0 | 0.00 | 0.00 | 0.00 | 80 | 848.9 |
| 20260507005338 | 7 | 179 | 20.9 | 32.2 | 0.00 | 0.00 | 0.00 | 80 | 849.0 |
| 20260507005039 | 7 | 187 | 16.1 | 30.6 | 0.00 | 0.00 | 0.00 | 80 | 849.0 |
| 20260507004835 | 7 | 184 | 17.7 | 33.8 | 0.00 | 0.00 | 0.00 | 80 | 848.9 |
| 20260507004635 | 7 | 187 | 16.1 | 22.5 | 0.00 | 0.00 | 0.00 | 80 | 848.9 |
| 20260507004436 | 7 | 181 | 16.1 | 27.4 | 0.00 | 0.00 | 0.00 | 80 | 848.9 |
| 20260507004335 | 7 | 185 | 17.7 | 29.0 | 0.00 | 0.00 | 0.00 | 80 | 848.9 |
| 20260507004235 | 7 | 185 | 19.3 | 32.2 | 0.00 | 0.00 | 0.00 | 80 | 848.9 |
| 20260507004035 | 7 | 184 | 17.7 | 32.2 | 0.00 | 0.00 | 0.00 | 80 | 848.9 |
| 20260507003831 | 7 | 173 | 14.5 | 29.0 | 0.00 | 0.00 | 0.00 | 80 | 848.9 |
| 20260507003632 | 7 | 179 | 17.7 | 29.0 | 0.00 | 0.00 | 0.00 | 80 | 849.0 |
| 20260507003432 | 7 | 176 | 19.3 | 33.8 | 0.00 | 0.00 | 0.00 | 80 | 848.9 |
| 20260507003331 | 7 | 178 | 17.7 | 33.8 | 0.00 | 0.00 | 0.00 | 80 | 849.0 |
| 20260507003231 | 7 | 182 | 17.7 | 33.8 | 0.00 | 0.00 | 0.00 | 80 | 849.0 |
| 20260507003031 | 7 | 183 | 16.1 | 25.7 | 0.00 | 0.00 | 0.00 | 80 | 849.0 |
| 20260507002828 | 7 | 176 | 19.3 | 33.8 | 0.00 | 0.00 | 0.00 | 80 | 849.1 |
| 20260507002630 | 7 | 182 | 17.7 | 35.4 | 0.00 | 0.00 | 0.00 | 80 | 849.0 |
| 20260507002430 | 7 | 176 | 16.1 | 35.4 | 0.00 | 0.00 | 0.00 | 80 | 849.0 |
| 20260507002328 | 7 | 174 | 17.7 | 32.2 | 0.00 | 0.00 | 0.00 | 80 | 849.0 |
| 20260507002229 | 7 | 175 | 19.3 | 32.2 | 0.00 | 0.00 | 0.00 | 80 | 849.0 |
| 20260507002028 | 7 | 181 | 12.9 | 22.5 | 0.00 | 0.00 | 0.00 | 80 | 849.1 |
| 20260507001825 | 7 | 171 | 12.9 | 22.5 | 0.00 | 0.00 | 0.00 | 80 | 849.1 |
| 20260507001626 | 7 | 161 | 12.9 | 24.1 | 0.00 | 0.00 | 0.00 | 80 | 849.1 |
| 20260507001325 | 7 | 178 | 16.1 | 25.7 | 0.00 | 0.00 | 0.00 | 80 | 849.0 |
| 20260507001226 | 7 | 186 | 14.5 | 25.7 | 0.00 | 0.00 | 0.00 | 80 | 849.0 |
| 20260507000822 | 7 | 181 | 20.9 | 35.4 | 0.00 | 0.00 | 0.00 | 80 | 849.0 |
| 20260507000623 | 7 | 182 | 19.3 | 33.8 | 0.00 | 0.00 | 0.00 | 80 | 849.0 |
| 20260507000423 | 7 | 180 | 16.1 | 32.2 | 0.00 | 0.00 | 0.00 | 80 | 849.0 |
| 20260507000322 | 7 | 180 | 19.3 | 37.0 | 0.00 | 0.00 | 0.00 | 80 | 849.0 |
| 20260507000223 | 7 | 180 | 19.3 | 37.0 | 0.00 | 0.00 | 0.00 | 80 | 849.0 |
| 20260507000023 | 7 | 182 | 19.3 | 43.5 | 0.00 | 0.00 | 0.00 | 80 | 849.1 |
| 20260506235819 | 7 | 182 | 22.5 | 43.5 | 0.00 | 0.00 | 0.00 | 80 | 849.1 |
| 20260506235620 | 7 | 186 | 17.7 | 37.0 | 0.00 | 0.00 | 0.00 | 80 | 849.1 |
| 20260506235420 | 7 | 192 | 20.9 | 37.0 | 0.00 | 0.00 | 0.00 | 80 | 849.1 |
| 20260506235319 | 7 | 188 | 22.5 | 32.2 | 0.00 | 0.00 | 0.00 | 80 | 849.1 |
| 20260506235220 | 7 | 185 | 19.3 | 30.6 | 0.00 | 0.00 | 0.00 | 80 | 849.1 |
| 20260506235020 | 7 | 191 | 17.7 | 24.1 | 0.00 | 0.00 | 0.00 | 80 | 849.2 |
| 20260506234816 | 7 | 184 | 17.7 | 24.1 | 0.00 | 0.00 | 0.00 | 80 | 849.2 |
| 20260506234617 | 7 | 191 | 17.7 | 33.8 | 0.00 | 0.00 | 0.00 | 80 | 849.2 |
| 20260506234417 | 7 | 188 | 19.3 | 37.0 | 0.00 | 0.00 | 0.00 | 80 | 849.2 |
| 20260506234316 | 7 | 188 | 19.3 | 37.0 | 0.00 | 0.00 | 0.00 | 80 | 849.3 |
| 20260506234218 | 7 | 185 | 16.1 | 30.6 | 0.00 | 0.00 | 0.00 | 80 | 849.3 |
| 20260506234017 | 7 | 181 | 12.9 | 24.1 | 0.00 | 0.00 | 0.00 | 80 | 849.3 |
| 20260506233813 | 7 | 178 | 16.1 | 32.2 | 0.00 | 0.00 | 0.00 | 80 | 849.3 |
| 20260506233614 | 7 | 186 | 17.7 | 32.2 | 0.00 | 0.00 | 0.00 | 80 | 849.3 |
| 20260506233414 | 7 | 172 | 12.9 | 24.1 | 0.00 | 0.00 | 0.00 | 80 | 849.4 |
| 20260506233313 | 7 | 165 | 14.5 | 24.1 | 0.00 | 0.00 | 0.00 | 79 | 849.4 |
| 20260506233213 | 7 | 170 | 16.1 | 30.6 | 0.00 | 0.00 | 0.00 | 79 | 849.4 |
| 20260506233013 | 7 | 178 | 14.5 | 30.6 | 0.00 | 0.00 | 0.00 | 79 | 849.4 |
| 20260506232810 | 7 | 172 | 11.3 | 17.7 | 0.00 | 0.00 | 0.00 | 79 | 849.4 |
| 20260506232611 | 7 | 173 | 11.3 | 19.3 | 0.00 | 0.00 | 0.00 | 79 | 849.4 |
| 20260506232410 | 7 | 171 | 9.7 | 20.9 | 0.00 | 0.00 | 0.00 | 79 | 849.4 |
| 20260506232309 | 7 | 168 | 9.7 | 20.9 | 0.00 | 0.00 | 0.00 | 79 | 849.4 |
| 20260506232211 | 7 | 167 | 9.7 | 17.7 | 0.00 | 0.00 | 0.00 | 79 | 849.4 |
| 20260506232011 | 7 | 169 | 11.3 | 24.1 | 0.00 | 0.00 | 0.00 | 79 | 849.4 |
| 20260506231806 | 7 | 172 | 14.5 | 24.1 | 0.00 | 0.00 | 0.00 | 79 | 849.4 |
| 20260506231608 | 7 | 178 | 11.3 | 22.5 | 0.00 | 0.00 | 0.00 | 79 | 849.5 |
| 20260506231408 | 7 | 174 | 11.3 | 22.5 | 0.00 | 0.00 | 0.00 | 79 | 849.4 |
| 20260506231306 | 7 | 171 | 11.3 | 19.3 | 0.00 | 0.00 | 0.00 | 79 | 849.4 |
| 20260506231207 | 7 | 174 | 12.9 | 19.3 | 0.00 | 0.00 | 0.00 | 79 | 849.4 |
| 20260506231007 | 7 | 166 | 16.1 | 27.4 | 0.00 | 0.00 | 0.00 | 79 | 849.4 |
| 20260506230803 | 7 | 176 | 16.1 | 27.4 | 0.00 | 0.00 | 0.00 | 79 | 849.4 |
| 20260506230604 | 7 | 184 | 16.1 | 33.8 | 0.00 | 0.00 | 0.00 | 79 | 849.4 |
| 20260506230303 | 7 | 169 | 11.3 | 20.9 | 0.00 | 0.00 | 0.00 | 79 | 849.4 |
| 20260506230205 | 7 | 172 | 16.1 | 24.1 | 0.00 | 0.00 | 0.00 | 78 | 849.4 |
| 20260506230004 | 7 | 174 | 16.1 | 25.7 | 0.00 | 0.00 | 0.00 | 78 | 849.4 |
| 20260506225801 | 7 | 179 | 12.9 | 32.2 | 0.00 | 0.00 | 0.00 | 78 | 849.4 |
| 20260506225602 | 7 | 178 | 12.9 | 32.2 | 0.00 | 0.00 | 0.00 | 78 | 849.4 |
| 20260506225301 | 7 | 181 | 11.3 | 25.7 | 0.00 | 0.00 | 0.00 | 78 | 849.5 |
| 20260506225202 | 7 | 178 | 12.9 | 25.7 | 0.00 | 0.00 | 0.00 | 78 | 849.5 |
| 20260506225002 | 7 | 178 | 11.3 | 27.4 | 0.00 | 0.00 | 0.00 | 78 | 849.5 |
| 20260506224758 | 7 | 175 | 9.7 | 25.7 | 0.00 | 0.00 | 0.00 | 78 | 849.6 |
| 20260506224558 | 8 | 174 | 11.3 | 22.5 | 0.00 | 0.00 | 0.00 | 78 | 849.6 |
| 20260506224359 | 8 | 174 | 9.7 | 17.7 | 0.00 | 0.00 | 0.00 | 78 | 849.7 |
| 20260506224258 | 8 | 170 | 9.7 | 22.5 | 0.00 | 0.00 | 0.00 | 77 | 849.7 |
| 20260506224159 | 8 | 166 | 9.7 | 22.5 | 0.00 | 0.00 | 0.00 | 77 | 849.7 |
| 20260506223958 | 8 | 163 | 11.3 | 20.9 | 0.00 | 0.00 | 0.00 | 77 | 849.6 |
| 20260506223754 | 8 | 164 | 14.5 | 25.7 | 0.00 | 0.00 | 0.00 | 77 | 849.6 |
| 20260506223555 | 8 | 169 | 11.3 | 22.5 | 0.00 | 0.00 | 0.00 | 77 | 849.6 |
| 20260506223254 | 8 | 173 | 12.9 | 19.3 | 0.00 | 0.00 | 0.00 | 77 | 849.6 |
| 20260506223155 | 8 | 173 | 9.7 | 19.3 | 0.00 | 0.00 | 0.00 | 77 | 849.6 |
| 20260506222955 | 8 | 162 | 8.0 | 17.7 | 0.00 | 0.00 | 0.00 | 77 | 849.6 |
| 20260506222751 | 8 | 172 | 6.4 | 16.1 | 0.00 | 0.00 | 0.00 | 77 | 849.6 |
| 20260506222553 | 8 | 181 | 8.0 | 14.5 | 0.00 | 0.00 | 0.00 | 77 | 849.6 |
| 20260506222238 | 8 | 180 | 16.1 | 30.6 | 0.00 | 0.00 | 0.00 | 77 | 849.7 |
| 20260506222139 | 8 | 178 | 14.5 | 30.6 | 0.00 | 0.00 | 0.00 | 77 | 849.7 |
| 20260506221939 | 8 | 170 | 12.9 | 20.9 | 0.00 | 0.00 | 0.00 | 77 | 849.7 |
| 20260506221735 | 8 | 178 | 14.5 | 25.7 | 0.00 | 0.00 | 0.00 | 77 | 849.7 |
| 20260506221536 | 8 | 186 | 11.3 | 25.7 | 0.00 | 0.00 | 0.00 | 77 | 849.7 |
| 20260506221235 | 8 | 177 | 9.7 | 16.1 | 0.00 | 0.00 | 0.00 | 77 | 849.7 |
| 20260506221137 | 8 | 178 | 11.3 | 16.1 | 0.00 | 0.00 | 0.00 | 77 | 849.8 |
| 20260506220936 | 8 | 173 | 9.7 | 17.7 | 0.00 | 0.00 | 0.00 | 77 | 849.7 |
| 20260506220732 | 8 | 176 | 9.7 | 14.5 | 0.00 | 0.00 | 0.00 | 77 | 849.7 |
| 20260506220534 | 8 | 180 | 11.3 | 24.1 | 0.00 | 0.00 | 0.00 | 77 | 849.6 |
| 20260506220334 | 8 | 173 | 12.9 | 24.1 | 0.00 | 0.00 | 0.00 | 77 | 849.6 |
| 20260506220232 | 8 | 168 | 11.3 | 22.5 | 0.00 | 0.00 | 0.00 | 77 | 849.6 |
| 20260506220134 | 8 | 173 | 9.7 | 22.5 | 0.00 | 0.00 | 0.00 | 77 | 849.6 |
| 20260506215934 | 8 | 173 | 9.7 | 14.5 | 0.00 | 0.00 | 0.00 | 77 | 849.6 |
| 20260506215730 | 8 | 172 | 11.3 | 19.3 | 0.00 | 0.00 | 0.00 | 77 | 849.6 |
| 20260506215531 | 8 | 169 | 12.9 | 20.9 | 0.00 | 0.00 | 0.00 | 77 | 849.6 |
| 20260506215331 | 8 | 163 | 11.3 | 20.9 | 0.00 | 0.00 | 0.00 | 77 | 849.6 |
| 20260506215230 | 8 | 165 | 11.3 | 16.1 | 0.00 | 0.00 | 0.00 | 77 | 849.6 |
| 20260506215130 | 8 | 167 | 11.3 | 16.1 | 0.00 | 0.00 | 0.00 | 76 | 849.6 |
| 20260506214931 | 8 | 172 | 11.3 | 17.7 | 0.00 | 0.00 | 0.00 | 76 | 849.5 |
| 20260506214727 | 8 | 169 | 11.3 | 17.7 | 0.00 | 0.00 | 0.00 | 76 | 849.5 |
| 20260506214528 | 8 | 165 | 11.3 | 16.1 | 0.00 | 0.00 | 0.00 | 76 | 849.4 |
| 20260506214328 | 8 | 165 | 11.3 | 20.9 | 0.00 | 0.00 | 0.00 | 76 | 849.4 |
| 20260506214226 | 8 | 163 | 11.3 | 20.9 | 0.00 | 0.00 | 0.00 | 76 | 849.4 |
| 20260506214128 | 8 | 161 | 11.3 | 20.9 | 0.00 | 0.00 | 0.00 | 76 | 849.4 |
| 20260506213928 | 8 | 173 | 12.9 | 25.7 | 0.00 | 0.00 | 0.00 | 76 | 849.3 |
| 20260506213723 | 8 | 183 | 11.3 | 19.3 | 0.00 | 0.00 | 0.00 | 76 | 849.3 |
| 20260506213524 | 8 | 173 | 12.9 | 20.9 | 0.00 | 0.00 | 0.00 | 76 | 849.4 |
| 20260506213324 | 8 | 172 | 12.9 | 20.9 | 0.00 | 0.00 | 0.00 | 76 | 849.4 |
| 20260506213223 | 8 | 170 | 12.9 | 20.9 | 0.00 | 0.00 | 0.00 | 76 | 849.5 |
| 20260506213124 | 8 | 170 | 14.5 | 24.1 | 0.00 | 0.00 | 0.00 | 76 | 849.5 |
| 20260506212923 | 8 | 173 | 12.9 | 24.1 | 0.00 | 0.00 | 0.00 | 76 | 849.7 |
| 20260506212720 | 8 | 172 | 11.3 | 17.7 | 0.00 | 0.00 | 0.00 | 76 | 849.8 |
| 20260506212522 | 8 | 181 | 16.1 | 35.4 | 0.00 | 0.00 | 0.00 | 76 | 849.8 |
| 20260506212321 | 8 | 178 | 17.7 | 41.8 | 0.00 | 0.00 | 0.00 | 76 | 849.8 |
| 20260506212220 | 8 | 169 | 16.1 | 41.8 | 0.00 | 0.00 | 0.00 | 76 | 849.8 |
| 20260506212121 | 8 | 168 | 12.9 | 29.0 | 0.00 | 0.00 | 0.00 | 76 | 849.8 |
| 20260506211921 | 8 | 167 | 14.5 | 30.6 | 0.00 | 0.00 | 0.00 | 76 | 849.8 |
| 20260506211717 | 8 | 169 | 16.1 | 29.0 | 0.00 | 0.00 | 0.00 | 76 | 849.8 |
| 20260506211519 | 8 | 182 | 16.1 | 29.0 | 0.00 | 0.00 | 0.00 | 76 | 849.7 |
| 20260506211319 | 8 | 172 | 14.5 | 25.7 | 0.00 | 0.00 | 0.00 | 76 | 849.7 |
| 20260506211217 | 8 | 173 | 14.5 | 25.7 | 0.00 | 0.00 | 0.00 | 76 | 849.7 |
| 20260506211118 | 8 | 174 | 17.7 | 30.6 | 0.00 | 0.00 | 0.00 | 76 | 849.7 |
| 20260506210918 | 8 | 169 | 16.1 | 30.6 | 0.00 | 0.00 | 0.00 | 75 | 849.7 |
| 20260506210715 | 8 | 173 | 16.1 | 25.7 | 0.00 | 0.00 | 0.00 | 75 | 849.7 |
| 20260506210515 | 8 | 174 | 17.7 | 25.7 | 0.00 | 0.00 | 0.00 | 75 | 849.7 |
| 20260506210315 | 8 | 173 | 14.5 | 25.7 | 0.00 | 0.00 | 0.00 | 75 | 849.6 |
| 20260506210214 | 8 | 170 | 14.5 | 19.3 | 0.00 | 0.00 | 0.00 | 75 | 849.6 |
| 20260506205915 | 8 | 175 | 14.5 | 29.0 | 0.00 | 0.00 | 0.00 | 75 | 849.7 |
| 20260506205711 | 8 | 172 | 16.1 | 35.4 | 0.00 | 0.00 | 0.00 | 75 | 849.7 |
| 20260506205211 | 8 | 174 | 16.1 | 25.7 | 0.00 | 0.00 | 0.00 | 75 | 849.7 |
| 20260506205112 | 8 | 172 | 17.7 | 33.8 | 0.00 | 0.00 | 0.00 | 75 | 849.7 |
| 20260506204912 | 8 | 173 | 16.1 | 33.8 | 0.00 | 0.00 | 0.00 | 75 | 849.6 |
| 20260506204708 | 8 | 168 | 16.1 | 24.1 | 0.00 | 0.00 | 0.00 | 75 | 849.6 |
| 20260506204509 | 8 | 161 | 14.5 | 24.1 | 0.00 | 0.00 | 0.00 | 75 | 849.6 |
| 20260506204309 | 8 | 176 | 16.1 | 24.1 | 0.00 | 0.00 | 0.00 | 75 | 849.7 |
| 20260506204208 | 8 | 176 | 14.5 | 24.1 | 0.00 | 0.00 | 0.00 | 75 | 849.7 |
| 20260506204109 | 8 | 174 | 14.5 | 20.9 | 0.00 | 0.00 | 0.00 | 75 | 849.7 |
| 20260506203909 | 8 | 173 | 14.5 | 25.7 | 0.00 | 0.00 | 0.00 | 75 | 849.8 |
| 20260506203705 | 8 | 176 | 16.1 | 25.7 | 0.00 | 0.00 | 0.00 | 75 | 849.8 |
| 20260506203506 | 8 | 180 | 12.9 | 20.9 | 0.00 | 0.00 | 0.00 | 74 | 849.8 |
| 20260506203306 | 8 | 165 | 16.1 | 25.7 | 0.00 | 0.00 | 0.00 | 74 | 849.8 |
| 20260506203205 | 8 | 159 | 16.1 | 29.0 | 0.00 | 0.00 | 0.00 | 74 | 849.8 |
| 20260506203108 | 8 | 158 | 16.1 | 29.0 | 0.00 | 0.00 | 0.00 | 74 | 849.9 |
| 20260506202906 | 8 | 166 | 12.9 | 19.3 | 0.00 | 0.00 | 0.00 | 74 | 849.8 |
| 20260506202702 | 8 | 169 | 16.1 | 30.6 | 0.00 | 0.00 | 0.00 | 74 | 849.8 |
| 20260506202503 | 8 | 167 | 14.5 | 22.5 | 0.00 | 0.00 | 0.00 | 74 | 849.8 |
| 20260506202203 | 8 | 169 | 16.1 | 25.7 | 0.00 | 0.00 | 0.00 | 74 | 849.7 |
| 20260506202102 | 8 | 176 | 14.5 | 25.7 | 0.00 | 0.00 | 0.00 | 74 | 849.7 |
| 20260506201903 | 8 | 173 | 16.1 | 25.7 | 0.00 | 0.00 | 0.00 | 74 | 849.7 |
| 20260506201659 | 8 | 167 | 17.7 | 45.1 | 0.00 | 0.00 | 0.00 | 74 | 849.7 |
| 20260506201501 | 8 | 160 | 17.7 | 45.1 | 0.00 | 0.00 | 0.00 | 74 | 849.7 |
| 20260506201301 | 8 | 162 | 19.3 | 29.0 | 0.00 | 0.00 | 0.00 | 74 | 849.7 |
| 20260506201159 | 8 | 163 | 17.7 | 27.4 | 0.00 | 0.00 | 0.00 | 74 | 849.7 |
| 20260506201100 | 8 | 163 | 16.1 | 29.0 | 0.00 | 0.00 | 0.00 | 74 | 849.7 |
| 20260506200859 | 8 | 162 | 19.3 | 29.0 | 0.00 | 0.00 | 0.00 | 74 | 849.8 |
| 20260506200656 | 8 | 171 | 14.5 | 25.7 | 0.00 | 0.00 | 0.00 | 74 | 849.8 |
| 20260506200456 | 8 | 169 | 16.1 | 27.4 | 0.00 | 0.00 | 0.00 | 73 | 849.7 |
| 20260506200256 | 8 | 179 | 16.1 | 25.7 | 0.00 | 0.00 | 0.00 | 73 | 849.8 |
| 20260506200156 | 8 | 173 | 16.1 | 25.7 | 0.00 | 0.00 | 0.00 | 73 | 849.8 |
| 20260506200056 | 8 | 176 | 14.5 | 25.7 | 0.00 | 0.00 | 0.00 | 73 | 849.8 |
| 20260506195857 | 8 | 173 | 12.9 | 24.1 | 0.00 | 0.00 | 0.00 | 73 | 849.8 |
| 20260506195653 | 8 | 178 | 16.1 | 29.0 | 0.00 | 0.00 | 0.00 | 73 | 849.8 |
| 20260506195454 | 8 | 175 | 17.7 | 30.6 | 0.00 | 0.00 | 0.00 | 73 | 849.8 |
| 20260506195254 | 8 | 171 | 16.1 | 30.6 | 0.00 | 0.00 | 0.00 | 73 | 849.8 |
| 20260506195153 | 8 | 169 | 16.1 | 24.1 | 0.00 | 0.00 | 0.00 | 73 | 849.8 |
| 20260506195054 | 8 | 171 | 16.1 | 25.7 | 0.00 | 0.00 | 0.00 | 73 | 849.7 |
| 20260506194853 | 8 | 179 | 19.3 | 32.2 | 0.00 | 0.00 | 0.00 | 73 | 849.7 |
| 20260506194637 | 8 | 169 | 16.1 | 24.1 | 0.00 | 0.00 | 0.00 | 73 | 849.7 |
| 20260506194439 | 8 | 154 | 14.5 | 24.1 | 0.00 | 0.00 | 0.00 | 73 | 849.7 |
| 20260506194239 | 8 | 163 | 14.5 | 24.1 | 0.00 | 0.00 | 0.00 | 73 | 849.8 |
| 20260506194137 | 8 | 170 | 14.5 | 24.1 | 0.00 | 0.00 | 0.00 | 72 | 849.8 |
| 20260506194039 | 8 | 173 | 16.1 | 30.6 | 0.00 | 0.00 | 0.00 | 72 | 849.8 |
| 20260506193839 | 8 | 170 | 16.1 | 30.6 | 0.00 | 0.00 | 0.00 | 72 | 849.8 |
| 20260506193634 | 8 | 162 | 16.1 | 25.7 | 0.00 | 0.00 | 0.00 | 72 | 849.8 |
| 20260506193435 | 8 | 169 | 16.1 | 20.9 | 0.00 | 0.00 | 0.00 | 72 | 849.8 |
| 20260506193234 | 8 | 177 | 12.9 | 19.3 | 0.00 | 0.00 | 0.00 | 72 | 849.8 |
| 20260506193134 | 8 | 180 | 11.3 | 19.3 | 0.00 | 0.00 | 0.00 | 72 | 849.8 |
| 20260506193034 | 8 | 179 | 12.9 | 20.9 | 0.00 | 0.00 | 0.00 | 72 | 849.9 |
| 20260506192834 | 8 | 172 | 12.9 | 20.9 | 0.00 | 0.00 | 0.00 | 72 | 849.9 |
| 20260506192631 | 8 | 169 | 12.9 | 22.5 | 0.00 | 0.00 | 0.00 | 72 | 849.9 |
| 20260506192432 | 8 | 168 | 14.5 | 27.4 | 0.00 | 0.00 | 0.00 | 72 | 849.8 |
| 20260506192232 | 9 | 167 | 17.7 | 25.7 | 0.00 | 0.00 | 0.00 | 72 | 849.8 |
| 20260506192131 | 9 | 167 | 16.1 | 25.7 | 0.00 | 0.00 | 0.00 | 72 | 849.8 |
| 20260506192032 | 9 | 165 | 12.9 | 19.3 | 0.00 | 0.00 | 0.00 | 72 | 849.8 |
| 20260506191628 | 9 | 169 | 12.9 | 22.5 | 0.00 | 0.00 | 0.00 | 72 | 849.8 |
| 20260506191429 | 9 | 173 | 12.9 | 20.9 | 0.00 | 0.00 | 0.00 | 72 | 849.8 |
| 20260506191228 | 9 | 174 | 12.9 | 20.9 | 0.00 | 0.00 | 0.00 | 72 | 849.8 |
| 20260506191128 | 9 | 175 | 12.9 | 20.9 | 0.00 | 0.00 | 0.00 | 72 | 849.8 |
| 20260506191028 | 9 | 175 | 14.5 | 20.9 | 0.00 | 0.00 | 0.00 | 71 | 849.7 |
| 20260506190625 | 9 | 175 | 14.5 | 20.9 | 0.00 | 0.00 | 0.00 | 71 | 849.8 |
| 20260506190426 | 9 | 176 | 12.9 | 17.7 | 0.00 | 0.00 | 0.00 | 71 | 849.8 |
| 20260506190225 | 9 | 163 | 14.5 | 29.0 | 0.00 | 0.00 | 0.00 | 71 | 849.8 |
| 20260506190124 | 9 | 164 | 12.9 | 29.0 | 0.00 | 0.00 | 0.00 | 71 | 849.8 |
| 20260506190026 | 9 | 164 | 12.9 | 29.0 | 0.00 | 0.00 | 0.00 | 71 | 849.8 |
| 20260506185621 | 9 | 167 | 12.9 | 20.9 | 0.00 | 0.00 | 0.00 | 71 | 849.8 |
| 20260506185423 | 9 | 170 | 12.9 | 20.9 | 0.00 | 0.00 | 0.00 | 71 | 849.8 |
| 20260506185223 | 9 | 165 | 14.5 | 24.1 | 0.00 | 0.00 | 0.00 | 71 | 849.8 |
| 20260506185121 | 9 | 161 | 12.9 | 24.1 | 0.00 | 0.00 | 0.00 | 71 | 849.7 |
| 20260506185018 | 9 | 164 | 12.9 | 22.5 | 0.00 | 0.00 | 0.00 | 71 | 849.7 |
| 20260506184819 | 9 | 173 | 12.9 | 22.5 | 0.00 | 0.00 | 0.00 | 71 | 849.7 |
| 20260506184615 | 9 | 177 | 11.3 | 20.9 | 0.00 | 0.00 | 0.00 | 71 | 849.8 |
| 20260506184415 | 9 | 173 | 12.9 | 20.9 | 0.00 | 0.00 | 0.00 | 71 | 849.8 |
| 20260506184215 | 9 | 172 | 11.3 | 19.3 | 0.00 | 0.00 | 0.00 | 71 | 849.9 |
| 20260506184115 | 9 | 171 | 11.3 | 16.1 | 0.00 | 0.00 | 0.00 | 71 | 849.9 |
| 20260506184015 | 9 | 172 | 12.9 | 22.5 | 0.00 | 0.00 | 0.00 | 71 | 849.9 |
| 20260506183815 | 9 | 174 | 12.9 | 22.5 | 0.00 | 0.00 | 0.00 | 71 | 849.9 |
| 20260506183612 | 9 | 177 | 12.9 | 22.5 | 0.00 | 0.00 | 0.00 | 71 | 849.9 |
| 20260506183413 | 9 | 179 | 12.9 | 22.5 | 0.00 | 0.00 | 0.00 | 71 | 849.8 |
| 20260506183213 | 9 | 173 | 12.9 | 22.5 | 0.00 | 0.00 | 0.00 | 71 | 849.9 |
| 20260506183112 | 9 | 169 | 12.9 | 20.9 | 0.00 | 0.00 | 0.00 | 71 | 849.9 |
| 20260506183013 | 9 | 171 | 11.3 | 17.7 | 0.00 | 0.00 | 0.00 | 70 | 849.8 |
| 20260506182813 | 9 | 172 | 9.7 | 16.1 | 0.00 | 0.00 | 0.00 | 70 | 849.8 |
| 20260506182609 | 9 | 168 | 11.3 | 22.5 | 0.00 | 0.00 | 0.00 | 70 | 849.8 |
| 20260506182410 | 9 | 170 | 11.3 | 22.5 | 0.00 | 0.00 | 0.00 | 70 | 849.8 |
| 20260506182210 | 9 | 172 | 11.3 | 19.3 | 0.00 | 0.00 | 0.00 | 70 | 849.8 |
| 20260506182109 | 9 | 172 | 11.3 | 19.3 | 0.00 | 0.00 | 0.00 | 70 | 849.8 |
| 20260506182010 | 9 | 176 | 12.9 | 25.7 | 0.00 | 0.00 | 0.00 | 70 | 849.8 |
| 20260506181810 | 9 | 172 | 16.1 | 25.7 | 0.00 | 0.00 | 0.00 | 70 | 849.8 |
| 20260506181606 | 9 | 173 | 12.9 | 22.5 | 0.00 | 0.00 | 0.00 | 70 | 849.8 |
| 20260506181408 | 9 | 175 | 11.3 | 25.7 | 0.00 | 0.00 | 0.00 | 70 | 849.9 |
| 20260506181208 | 9 | 170 | 11.3 | 25.7 | 0.00 | 0.00 | 0.00 | 69 | 849.9 |
| 20260506181106 | 9 | 170 | 12.9 | 25.7 | 0.00 | 0.00 | 0.00 | 69 | 849.9 |
| 20260506181007 | 9 | 166 | 12.9 | 25.7 | 0.00 | 0.00 | 0.00 | 69 | 849.9 |
| 20260506180807 | 10 | 164 | 12.9 | 19.3 | 0.00 | 0.00 | 0.00 | 69 | 849.9 |
| 20260506180603 | 10 | 178 | 11.3 | 14.5 | 0.00 | 0.00 | 0.00 | 69 | 849.9 |
| 20260506180405 | 10 | 181 | 11.3 | 16.1 | 0.00 | 0.00 | 0.00 | 69 | 849.9 |
| 20260506180204 | 10 | 170 | 12.9 | 19.3 | 0.00 | 0.00 | 0.00 | 69 | 849.8 |
| 20260506180103 | 10 | 165 | 12.9 | 20.9 | 0.00 | 0.00 | 0.00 | 69 | 849.8 |
| 20260506175600 | 10 | 170 | 9.7 | 16.1 | 0.00 | 0.00 | 0.00 | 68 | 849.9 |
| 20260506175403 | 10 | 171 | 12.9 | 22.5 | 0.00 | 0.00 | 0.00 | 68 | 849.9 |
| 20260506175100 | 10 | 171 | 12.9 | 22.5 | 0.00 | 0.00 | 0.00 | 68 | 849.9 |
| 20260506175003 | 10 | 168 | 11.3 | 22.5 | 0.00 | 0.00 | 0.00 | 68 | 849.9 |
| 20260506174557 | 10 | 164 | 11.3 | 19.3 | 0.00 | 0.00 | 0.00 | 68 | 850.0 |
| 20260506174358 | 10 | 172 | 11.3 | 17.7 | 0.00 | 0.00 | 0.00 | 68 | 850.0 |
| 20260506174158 | 10 | 178 | 12.9 | 22.5 | 0.00 | 0.00 | 0.00 | 68 | 850.0 |
| 20260506174057 | 10 | 174 | 12.9 | 22.5 | 0.00 | 0.00 | 0.00 | 68 | 850.0 |
| 20260506173958 | 10 | 175 | 12.9 | 22.5 | 0.00 | 0.00 | 0.00 | 68 | 850.0 |
| 20260506173554 | 10 | 173 | 9.7 | 12.9 | 0.00 | 0.00 | 0.00 | 68 | 850.1 |
| 20260506173354 | 10 | 174 | 11.3 | 16.1 | 0.00 | 0.00 | 0.00 | 68 | 850.1 |
| 20260506173154 | 10 | 173 | 11.3 | 19.3 | 0.00 | 0.00 | 0.00 | 68 | 850.0 |
| 20260506173054 | 10 | 170 | 12.9 | 19.3 | 0.00 | 0.00 | 0.00 | 68 | 850.0 |
| 20260506172954 | 10 | 169 | 11.3 | 19.3 | 0.00 | 0.00 | 0.00 | 67 | 850.1 |
| 20260506172754 | 10 | 168 | 9.7 | 24.1 | 0.00 | 0.00 | 0.00 | 67 | 850.1 |
| 20260506172551 | 10 | 171 | 9.7 | 17.7 | 0.00 | 0.00 | 0.00 | 67 | 850.1 |
| 20260506172352 | 10 | 176 | 9.7 | 16.1 | 0.00 | 0.00 | 0.00 | 67 | 850.1 |
| 20260506172152 | 10 | 176 | 9.7 | 16.1 | 0.00 | 0.00 | 0.00 | 67 | 850.1 |
| 20260506172051 | 10 | 179 | 9.7 | 16.1 | 0.00 | 0.00 | 0.00 | 67 | 850.1 |
| 20260506171952 | 10 | 185 | 9.7 | 16.1 | 0.00 | 0.00 | 0.00 | 67 | 850.1 |
| 20260506171752 | 10 | 183 | 9.7 | 17.7 | 0.00 | 0.00 | 0.00 | 67 | 850.1 |
| 20260506171548 | 10 | 168 | 9.7 | 17.7 | 0.00 | 0.00 | 0.00 | 67 | 850.1 |
| 20260506171350 | 10 | 170 | 9.7 | 12.9 | 0.00 | 0.00 | 0.00 | 67 | 850.1 |
| 20260506171150 | 10 | 173 | 9.7 | 12.9 | 0.00 | 0.00 | 0.00 | 67 | 850.1 |
| 20260506171034 | 10 | 171 | 11.3 | 24.1 | 0.00 | 0.00 | 0.00 | 66 | 850.1 |
| 20260506170934 | 10 | 168 | 12.9 | 24.1 | 0.00 | 0.00 | 0.00 | 66 | 850.1 |
| 20260506170734 | 10 | 173 | 12.9 | 22.5 | 0.00 | 0.00 | 0.00 | 66 | 850.1 |
| 20260506170531 | 11 | 170 | 11.3 | 16.1 | 0.00 | 0.00 | 0.00 | 66 | 850.1 |
| 20260506170332 | 11 | 173 | 11.3 | 19.3 | 0.00 | 0.00 | 0.00 | 66 | 850.1 |
| 20260506170132 | 11 | 179 | 11.3 | 16.1 | 0.00 | 0.00 | 0.00 | 66 | 850.0 |
| 20260506170031 | 11 | 180 | 11.3 | 16.1 | 0.00 | 0.00 | 0.00 | 66 | 850.0 |
| 20260506165933 | 11 | 178 | 11.3 | 19.3 | 0.00 | 0.00 | 0.00 | 66 | 850.0 |
| 20260506165731 | 11 | 176 | 11.3 | 19.3 | 0.00 | 0.00 | 0.00 | 66 | 850.0 |
| 20260506165527 | 11 | 172 | 8.0 | 17.7 | 0.00 | 0.00 | 0.00 | 66 | 850.0 |
| 20260506165328 | 11 | 165 | 8.0 | 16.1 | 0.00 | 0.00 | 0.00 | 66 | 850.1 |
| 20260506165128 | 11 | 173 | 6.4 | 16.1 | 0.00 | 0.00 | 0.00 | 66 | 850.1 |
| 20260506165027 | 11 | 183 | 6.4 | 14.5 | 0.00 | 0.00 | 0.00 | 66 | 850.1 |
| 20260506164928 | 11 | 183 | 6.4 | 14.5 | 0.00 | 0.00 | 0.00 | 66 | 850.1 |
| 20260506164728 | 11 | 184 | 8.0 | 14.5 | 0.00 | 0.00 | 0.00 | 66 | 850.2 |
| 20260506164524 | 11 | 178 | 8.0 | 12.9 | 0.00 | 0.00 | 0.00 | 65 | 850.2 |
| 20260506164326 | 11 | 176 | 6.4 | 11.3 | 0.00 | 0.00 | 0.00 | 65 | 850.2 |
| 20260506164127 | 11 | 174 | 9.7 | 17.7 | 0.00 | 0.00 | 0.00 | 65 | 850.1 |
| 20260506164024 | 11 | 171 | 9.7 | 17.7 | 0.00 | 0.00 | 0.00 | 65 | 850.1 |
| 20260506163926 | 11 | 178 | 9.7 | 17.7 | 0.00 | 0.00 | 0.00 | 65 | 850.1 |
| 20260506163725 | 11 | 177 | 8.0 | 16.1 | 0.00 | 0.00 | 0.00 | 65 | 850.2 |
| 20260506163521 | 11 | 177 | 12.9 | 27.4 | 0.00 | 0.00 | 0.00 | 65 | 850.2 |
| 20260506163322 | 11 | 180 | 12.9 | 19.3 | 0.00 | 0.00 | 0.00 | 65 | 850.2 |
| 20260506163123 | 11 | 173 | 9.7 | 17.7 | 0.00 | 0.00 | 0.00 | 65 | 850.2 |
| 20260506163021 | 12 | 176 | 9.7 | 17.7 | 0.00 | 0.00 | 0.00 | 65 | 850.2 |
| 20260506162921 | 12 | 178 | 12.9 | 20.9 | 0.00 | 0.00 | 0.00 | 65 | 850.2 |
| 20260506162721 | 12 | 182 | 14.5 | 20.9 | 0.00 | 0.00 | 0.00 | 65 | 850.2 |
| 20260506162523 | 12 | 182 | 9.7 | 17.7 | 0.00 | 0.00 | 0.00 | 65 | 850.2 |
| 20260506162518 | 12 | 185 | 12.9 | 22.5 | 0.00 | 0.00 | 0.00 | 65 | 850.2 |
| 20260506162319 | 12 | 183 | 12.9 | 27.4 | 0.00 | 0.00 | 0.00 | 65 | 850.2 |
| 20260506162119 | 12 | 184 | 8.0 | 12.9 | 0.00 | 0.00 | 0.00 | 65 | 850.2 |
| 20260506162017 | 12 | 182 | 9.7 | 17.7 | 0.00 | 0.00 | 0.00 | 65 | 850.2 |
| 20260506161920 | 12 | 179 | 9.7 | 17.7 | 0.00 | 0.00 | 0.00 | 65 | 850.3 |
| 20260506161718 | 12 | 176 | 9.7 | 19.3 | 0.00 | 0.00 | 0.00 | 65 | 850.2 |
| 20260506161515 | 12 | 182 | 11.3 | 20.9 | 0.00 | 0.00 | 0.00 | 65 | 850.3 |
| 20260506161115 | 12 | 176 | 9.7 | 16.1 | 0.00 | 0.00 | 0.00 | 65 | 850.3 |
| 20260506161015 | 12 | 182 | 9.7 | 16.1 | 0.00 | 0.00 | 0.00 | 64 | 850.3 |
| 20260506160915 | 12 | 178 | 11.3 | 20.9 | 0.00 | 0.00 | 0.00 | 65 | 850.4 |
| 20260506160715 | 12 | 178 | 9.7 | 20.9 | 0.00 | 0.00 | 0.00 | 64 | 850.4 |
| 20260506160512 | 12 | 178 | 8.0 | 14.5 | 0.00 | 0.00 | 0.00 | 64 | 850.4 |
| 20260506160113 | 12 | 179 | 11.3 | 20.9 | 0.00 | 0.00 | 0.00 | 64 | 850.3 |
| 20260506160012 | 12 | 185 | 12.9 | 20.9 | 0.00 | 0.00 | 0.00 | 64 | 850.3 |
| 20260506155913 | 12 | 185 | 14.5 | 22.5 | 0.00 | 0.00 | 0.00 | 64 | 850.3 |
| 20260506155713 | 12 | 182 | 12.9 | 22.5 | 0.00 | 0.00 | 0.00 | 64 | 850.3 |
| 20260506155509 | 12 | 179 | 12.9 | 19.3 | 0.00 | 0.00 | 0.00 | 64 | 850.4 |
| 20260506155310 | 12 | 176 | 11.3 | 19.3 | 0.00 | 0.00 | 0.00 | 64 | 850.4 |
| 20260506155110 | 12 | 183 | 9.7 | 16.1 | 0.00 | 0.00 | 0.00 | 64 | 850.4 |
| 20260506155008 | 12 | 184 | 9.7 | 20.9 | 0.00 | 0.00 | 0.00 | 64 | 850.4 |
| 20260506154910 | 12 | 178 | 9.7 | 20.9 | 0.00 | 0.00 | 0.00 | 64 | 850.4 |
| 20260506154709 | 12 | 175 | 9.7 | 14.5 | 0.00 | 0.00 | 0.00 | 64 | 850.4 |
| 20260506154505 | 12 | 176 | 11.3 | 16.1 | 0.00 | 0.00 | 0.00 | 64 | 850.4 |
| 20260506154106 | 12 | 175 | 8.0 | 17.7 | 0.00 | 0.00 | 0.00 | 64 | 850.5 |
| 20260506154005 | 12 | 175 | 9.7 | 17.7 | 0.00 | 0.00 | 0.00 | 64 | 850.5 |
| 20260506153906 | 12 | 177 | 11.3 | 22.5 | 0.00 | 0.00 | 0.00 | 64 | 850.6 |
| 20260506153706 | 12 | 178 | 11.3 | 22.5 | 0.00 | 0.00 | 0.00 | 64 | 850.6 |
| 20260506153502 | 12 | 178 | 11.3 | 17.7 | 0.00 | 0.00 | 0.00 | 64 | 850.6 |
| 20260506153304 | 12 | 176 | 9.7 | 16.1 | 0.00 | 0.00 | 0.00 | 64 | 850.6 |
| 20260506153104 | 12 | 175 | 9.7 | 16.1 | 0.00 | 0.00 | 0.00 | 63 | 850.6 |
| 20260506153002 | 12 | 169 | 9.7 | 16.1 | 0.00 | 0.00 | 0.00 | 63 | 850.5 |
| 20260506152903 | 12 | 170 | 8.0 | 12.9 | 0.00 | 0.00 | 0.00 | 63 | 850.5 |
| 20260506152702 | 12 | 176 | 8.0 | 12.9 | 0.00 | 0.00 | 0.00 | 63 | 850.5 |
| 20260506152459 | 12 | 177 | 8.0 | 14.5 | 0.00 | 0.00 | 0.00 | 63 | 850.5 |
| 20260506152259 | 12 | 171 | 8.0 | 9.7 | 0.00 | 0.00 | 0.00 | 63 | 850.5 |
| 20260506152059 | 12 | 175 | 8.0 | 14.5 | 0.00 | 0.00 | 0.00 | 63 | 850.5 |
| 20260506151958 | 12 | 178 | 9.7 | 14.5 | 0.00 | 0.00 | 0.00 | 63 | 850.5 |
| 20260506151859 | 12 | 176 | 9.7 | 14.5 | 0.00 | 0.00 | 0.00 | 63 | 850.6 |
| 20260506151700 | 12 | 180 | 9.7 | 20.9 | 0.00 | 0.00 | 0.00 | 63 | 850.6 |